Time,TemperatureF,DewpointF,PressureIn,WindDirection,WindDirectionDegrees,WindSpeedMPH,WindSpeedGustMPH,Humidity,HourlyPrecipIn,Conditions,Clouds,dailyrainin,SoftwareType,DateUTC
2013-02-18 00:00:00,29.8,25.3,30.09,SE,137,0.0,4.0,83,0.00,,---,0.00,VWS V14.00,2013-02-18 08:00:00,
2013-02-18 00:01:00,31.1,26.0,30.09,SE,140,0.0,2.0,81,0.00,,---,0.00,VWS V14.00,2013-02-18 08:01:00,
2013-02-18 00:03:00,31.1,26.0,30.09,SE,140,1.0,2.0,81,0.00,,---,0.00,VWS V14.00,2013-02-18 08:03:00,
2013-02-18 00:04:00,31.1,26.0,30.09,SE,140,4.0,4.0,81,0.00,,---,0.00,VWS V14.00,2013-02-18 08:04:00,
2013-02-18 00:06:00,31.1,26.0,30.09,SE,139,4.0,6.0,81,0.00,,---,0.00,VWS V14.00,2013-02-18 08:06:00,
2013-02-18 00:08:00,31.2,26.1,30.09,SE,137,2.0,6.0,81,0.00,,---,0.00,VWS V14.00,2013-02-18 08:08:00,
2013-02-18 00:09:00,31.2,26.1,30.09,SE,137,4.0,6.0,81,0.00,,---,0.00,VWS V14.00,2013-02-18 08:09:00,
2013-02-18 00:11:00,31.1,25.7,30.09,SE,137,2.0,6.0,80,0.00,,---,0.00,VWS V14.00,2013-02-18 08:11:00,
2013-02-18 00:13:00,30.8,25.4,30.09,SE,137,0.0,6.0,80,0.00,,---,0.00,VWS V14.00,2013-02-18 08:13:00,
2013-02-18 00:14:00,30.7,25.3,30.09,SE,137,0.0,6.0,80,0.00,,---,0.00,VWS V14.00,2013-02-18 08:14:00,
2013-02-18 00:16:00,30.5,25.4,30.09,SE,137,0.0,6.0,81,0.00,,---,0.00,VWS V14.00,2013-02-18 08:16:00,
2013-02-18 00:18:00,30.4,25.3,30.09,SE,137,0.0,6.0,81,0.00,,---,0.00,VWS V14.00,2013-02-18 08:18:00,
2013-02-18 00:19:00,30.3,25.2,30.09,SE,137,0.0,6.0,81,0.00,,---,0.00,VWS V14.00,2013-02-18 08:19:00,
2013-02-18 00:20:00,30.3,25.2,30.09,SE,137,0.0,6.0,81,0.00,,---,0.00,VWS V14.00,2013-02-18 08:20:00,
2013-02-18 00:22:00,30.3,25.5,30.09,SE,137,0.0,6.0,82,0.00,,---,0.00,VWS V14.00,2013-02-18 08:22:00,
2013-02-18 00:23:00,30.3,25.5,30.09,SE,137,0.0,6.0,82,0.00,,---,0.00,VWS V14.00,2013-02-18 08:23:00,
2013-02-18 00:25:00,30.3,25.5,30.09,SE,137,0.0,6.0,82,0.00,,---,0.00,VWS V14.00,2013-02-18 08:25:00,
2013-02-18 00:27:00,30.2,25.1,30.09,SE,137,0.0,6.0,81,0.00,,---,0.00,VWS V14.00,2013-02-18 08:27:00,
2013-02-18 00:29:00,30.1,25.0,30.09,SE,137,0.0,6.0,81,0.00,,---,0.00,VWS V14.00,2013-02-18 08:29:00,
2013-02-18 00:30:00,30.0,24.9,30.09,SE,137,0.0,6.0,81,0.00,,---,0.00,VWS V14.00,2013-02-18 08:30:00,
2013-02-18 00:33:00,29.9,25.1,30.09,SE,137,0.0,1.0,82,0.00,,---,0.00,VWS V14.00,2013-02-18 08:33:00,
2013-02-18 00:34:00,29.9,25.1,30.09,SE,137,0.0,1.0,82,0.00,,---,0.00,VWS V14.00,2013-02-18 08:34:00,
2013-02-18 00:35:00,30.0,25.2,30.09,SE,137,2.0,2.0,82,0.00,,---,0.00,VWS V14.00,2013-02-18 08:35:00,
2013-02-18 00:38:00,29.8,24.7,30.09,SE,137,2.0,4.0,81,0.00,,---,0.00,VWS V14.00,2013-02-18 08:38:00,
2013-02-18 00:39:00,29.7,24.6,30.09,SE,137,2.0,4.0,81,0.00,,---,0.00,VWS V14.00,2013-02-18 08:39:00,
2013-02-18 00:40:00,29.6,24.8,30.09,SE,137,1.0,4.0,82,0.00,,---,0.00,VWS V14.00,2013-02-18 08:40:00,
2013-02-18 00:43:00,29.4,24.9,30.09,SE,137,0.0,4.0,83,0.00,,---,0.00,VWS V14.00,2013-02-18 08:43:00,
2013-02-18 00:44:00,29.4,24.9,30.09,SE,137,0.0,4.0,83,0.00,,---,0.00,VWS V14.00,2013-02-18 08:44:00,
2013-02-18 00:45:00,29.4,24.9,30.09,SE,137,0.0,4.0,83,0.00,,---,0.00,VWS V14.00,2013-02-18 08:45:00,
2013-02-18 00:46:00,29.4,24.9,30.09,SE,137,0.0,4.0,83,0.00,,---,0.00,VWS V14.00,2013-02-18 08:46:00,
2013-02-18 00:48:00,29.6,25.4,30.09,SE,137,0.0,4.0,84,0.00,,---,0.00,VWS V14.00,2013-02-18 08:48:00,
2013-02-18 00:49:00,29.6,25.4,30.09,SE,137,0.0,4.0,84,0.00,,---,0.00,VWS V14.00,2013-02-18 08:49:00,
2013-02-18 00:50:00,29.6,25.4,30.09,SE,137,0.0,4.0,84,0.00,,---,0.00,VWS V14.00,2013-02-18 08:50:00,
2013-02-18 00:51:00,29.6,25.4,30.09,SE,137,0.0,4.0,84,0.00,,---,0.00,VWS V14.00,2013-02-18 08:51:00,
2013-02-18 00:53:00,29.7,25.5,30.09,SE,137,0.0,4.0,84,0.00,,---,0.00,VWS V14.00,2013-02-18 08:53:00,
2013-02-18 00:55:00,29.7,25.5,30.09,SE,137,0.0,4.0,84,0.00,,---,0.00,VWS V14.00,2013-02-18 08:55:00,
2013-02-18 00:56:00,29.7,25.5,30.09,SE,137,0.0,4.0,84,0.00,,---,0.00,VWS V14.00,2013-02-18 08:56:00,
2013-02-18 00:58:00,29.8,25.6,30.09,SE,137,0.0,4.0,84,0.00,,---,0.00,VWS V14.00,2013-02-18 08:58:00,
2013-02-18 01:00:00,29.8,25.3,30.09,SE,137,0.0,4.0,83,0.00,,---,0.00,VWS V14.00,2013-02-18 09:00:00,
2013-02-18 01:01:00,29.8,25.3,30.09,SE,137,0.0,4.0,83,0.00,,---,0.00,VWS V14.00,2013-02-18 09:01:00,
2013-02-18 01:03:00,29.8,25.3,30.09,SE,137,0.0,1.0,83,0.00,,---,0.00,VWS V14.00,2013-02-18 09:03:00,
2013-02-18 01:05:00,29.8,25.3,30.09,SE,137,0.0,1.0,83,0.00,,---,0.00,VWS V14.00,2013-02-18 09:05:00,
2013-02-18 01:06:00,29.8,25.3,30.09,SE,137,0.0,1.0,83,0.00,,---,0.00,VWS V14.00,2013-02-18 09:06:00,
2013-02-18 01:08:00,29.5,25.0,30.09,SE,137,0.0,1.0,83,0.00,,---,0.00,VWS V14.00,2013-02-18 09:08:00,
2013-02-18 01:10:00,29.4,24.9,30.09,SE,137,0.0,1.0,83,0.00,,---,0.00,VWS V14.00,2013-02-18 09:10:00,
2013-02-18 01:11:00,29.4,24.9,30.09,SE,137,0.0,1.0,83,0.00,,---,0.00,VWS V14.00,2013-02-18 09:11:00,
2013-02-18 01:14:00,29.4,24.9,30.09,SE,137,0.0,1.0,83,0.00,,---,0.00,VWS V14.00,2013-02-18 09:14:00,
2013-02-18 01:15:00,29.3,25.1,30.09,SE,137,0.0,1.0,84,0.00,,---,0.00,VWS V14.00,2013-02-18 09:15:00,
2013-02-18 01:16:00,29.3,25.1,30.09,SE,137,0.0,1.0,84,0.00,,---,0.00,VWS V14.00,2013-02-18 09:16:00,
2013-02-18 01:19:00,29.3,25.1,30.08,SE,137,0.0,1.0,84,0.00,,---,0.00,VWS V14.00,2013-02-18 09:19:00,
2013-02-18 01:21:00,29.4,25.2,30.08,SE,137,0.0,1.0,84,0.00,,---,0.00,VWS V14.00,2013-02-18 09:21:00,
2013-02-18 01:22:00,29.4,25.2,30.08,SE,137,0.0,1.0,84,0.00,,---,0.00,VWS V14.00,2013-02-18 09:22:00,
2013-02-18 01:24:00,29.4,25.2,30.08,SE,137,0.0,1.0,84,0.00,,---,0.00,VWS V14.00,2013-02-18 09:24:00,
2013-02-18 01:26:00,29.4,25.5,30.08,SE,137,0.0,1.0,85,0.00,,---,0.00,VWS V14.00,2013-02-18 09:26:00,
2013-02-18 01:27:00,29.4,25.5,30.08,SE,137,0.0,1.0,85,0.00,,---,0.00,VWS V14.00,2013-02-18 09:27:00,
2013-02-18 01:29:00,29.5,25.6,30.08,SE,137,0.0,1.0,85,0.00,,---,0.00,VWS V14.00,2013-02-18 09:29:00,
2013-02-18 01:30:00,30.8,25.7,30.07,SE,137,2.0,2.0,81,0.00,,---,0.00,VWS V14.00,2013-02-18 09:30:00,
2013-02-18 01:31:00,29.5,25.3,30.08,SE,137,0.0,1.0,84,0.00,,---,0.00,VWS V14.00,2013-02-18 09:31:00,
2013-02-18 01:33:00,29.5,25.3,30.08,SE,137,0.0,0.0,84,0.00,,---,0.00,VWS V14.00,2013-02-18 09:33:00,
2013-02-18 01:34:00,29.4,25.2,30.08,SE,137,0.0,0.0,84,0.00,,---,0.00,VWS V14.00,2013-02-18 09:34:00,
2013-02-18 01:36:00,29.5,25.3,30.08,SE,137,0.0,0.0,84,0.00,,---,0.00,VWS V14.00,2013-02-18 09:36:00,
2013-02-18 01:37:00,29.5,25.3,30.08,SE,137,0.0,0.0,84,0.00,,---,0.00,VWS V14.00,2013-02-18 09:37:00,
2013-02-18 01:38:00,29.5,25.3,30.08,SE,137,0.0,1.0,84,0.00,,---,0.00,VWS V14.00,2013-02-18 09:38:00,
2013-02-18 01:39:00,29.4,25.2,30.08,SE,137,0.0,1.0,84,0.00,,---,0.00,VWS V14.00,2013-02-18 09:39:00,
2013-02-18 01:41:00,29.4,25.2,30.08,SE,137,0.0,2.0,84,0.00,,---,0.00,VWS V14.00,2013-02-18 09:41:00,
2013-02-18 01:42:00,29.4,25.2,30.08,SE,137,0.0,2.0,84,0.00,,---,0.00,VWS V14.00,2013-02-18 09:42:00,
2013-02-18 01:43:00,29.3,25.1,30.08,SE,137,0.0,2.0,84,0.00,,---,0.00,VWS V14.00,2013-02-18 09:43:00,
2013-02-18 01:45:00,29.2,25.0,30.08,SE,137,0.0,2.0,84,0.00,,---,0.00,VWS V14.00,2013-02-18 09:45:00,
2013-02-18 01:46:00,29.2,25.0,30.08,SE,137,2.0,2.0,84,0.00,,---,0.00,VWS V14.00,2013-02-18 09:46:00,
2013-02-18 01:47:00,29.2,25.0,30.08,SE,137,0.0,2.0,84,0.00,,---,0.00,VWS V14.00,2013-02-18 09:47:00,
2013-02-18 01:49:00,29.2,25.0,30.08,SE,137,1.0,4.0,84,0.00,,---,0.00,VWS V14.00,2013-02-18 09:49:00,
2013-02-18 01:50:00,29.2,25.0,30.08,SE,137,2.0,4.0,84,0.00,,---,0.00,VWS V14.00,2013-02-18 09:50:00,
2013-02-18 01:52:00,29.2,25.3,30.08,SE,137,2.0,4.0,85,0.00,,---,0.00,VWS V14.00,2013-02-18 09:52:00,
2013-02-18 01:54:00,29.3,25.4,30.08,SE,137,0.0,4.0,85,0.00,,---,0.00,VWS V14.00,2013-02-18 09:54:00,
2013-02-18 01:55:00,29.3,25.4,30.08,SE,137,0.0,4.0,85,0.00,,---,0.00,VWS V14.00,2013-02-18 09:55:00,
2013-02-18 01:57:00,29.4,25.5,30.08,SE,137,0.0,4.0,85,0.00,,---,0.00,VWS V14.00,2013-02-18 09:57:00,
2013-02-18 01:59:00,29.4,25.5,30.08,SE,137,0.0,4.0,85,0.00,,---,0.00,VWS V14.00,2013-02-18 09:59:00,
2013-02-18 02:00:00,30.7,25.6,30.06,SE,137,0.0,4.0,81,0.00,,---,0.00,VWS V14.00,2013-02-18 10:00:00,
2013-02-18 02:01:00,29.4,25.5,30.07,SE,137,0.0,4.0,85,0.00,,---,0.00,VWS V14.00,2013-02-18 10:01:00,
2013-02-18 02:02:00,29.4,25.5,30.07,SE,137,0.0,0.0,85,0.00,,---,0.00,VWS V14.00,2013-02-18 10:02:00,
2013-02-18 02:04:00,29.4,25.5,30.07,SE,137,0.0,0.0,85,0.00,,---,0.00,VWS V14.00,2013-02-18 10:04:00,
2013-02-18 02:06:00,29.4,25.5,30.07,SE,137,0.0,0.0,85,0.00,,---,0.00,VWS V14.00,2013-02-18 10:06:00,
2013-02-18 02:07:00,29.4,25.5,30.07,SE,137,0.0,0.0,85,0.00,,---,0.00,VWS V14.00,2013-02-18 10:07:00,
2013-02-18 02:08:00,29.4,25.5,30.07,SE,137,0.0,0.0,85,0.00,,---,0.00,VWS V14.00,2013-02-18 10:08:00,
2013-02-18 02:09:00,29.4,25.5,30.07,SE,137,0.0,0.0,85,0.00,,---,0.00,VWS V14.00,2013-02-18 10:09:00,
2013-02-18 02:11:00,29.4,25.5,30.07,SE,137,0.0,0.0,85,0.00,,---,0.00,VWS V14.00,2013-02-18 10:11:00,
2013-02-18 02:13:00,29.4,25.5,30.07,SE,137,0.0,0.0,85,0.00,,---,0.00,VWS V14.00,2013-02-18 10:13:00,
2013-02-18 02:15:00,29.4,25.5,30.07,SE,137,0.0,0.0,85,0.00,,---,0.00,VWS V14.00,2013-02-18 10:15:00,
2013-02-18 02:16:00,29.4,25.5,30.07,SE,137,0.0,0.0,85,0.00,,---,0.00,VWS V14.00,2013-02-18 10:16:00,
2013-02-18 02:18:00,29.4,25.5,30.07,SE,137,0.0,0.0,85,0.00,,---,0.00,VWS V14.00,2013-02-18 10:18:00,
2013-02-18 02:20:00,29.4,25.5,30.07,SE,137,0.0,0.0,85,0.00,,---,0.00,VWS V14.00,2013-02-18 10:20:00,
2013-02-18 02:22:00,29.4,25.5,30.07,SE,137,0.0,0.0,85,0.00,,---,0.00,VWS V14.00,2013-02-18 10:22:00,
2013-02-18 02:23:00,29.4,25.5,30.07,SE,137,0.0,0.0,85,0.00,,---,0.00,VWS V14.00,2013-02-18 10:23:00,
2013-02-18 02:25:00,29.4,25.5,30.07,SE,137,0.0,0.0,85,0.00,,---,0.00,VWS V14.00,2013-02-18 10:25:00,
2013-02-18 02:27:00,30.8,26.0,30.07,SE,137,0.0,0.0,82,0.00,,---,0.00,VWS V14.00,2013-02-18 10:27:00,
2013-02-18 02:28:00,30.8,26.0,30.07,SE,137,0.0,0.0,82,0.00,,---,0.00,VWS V14.00,2013-02-18 10:28:00,
2013-02-18 02:30:00,30.0,25.5,30.05,SE,137,0.0,2.0,83,0.00,,---,0.00,VWS V14.00,2013-02-18 10:30:00,
2013-02-18 02:31:00,30.8,26.0,30.07,SE,137,0.0,0.0,82,0.00,,---,0.00,VWS V14.00,2013-02-18 10:31:00,
2013-02-18 02:32:00,30.8,25.7,30.07,SE,137,2.0,2.0,81,0.00,,---,0.00,VWS V14.00,2013-02-18 10:32:00,
2013-02-18 02:33:00,30.7,25.6,30.07,SE,137,1.0,4.0,81,0.00,,---,0.00,VWS V14.00,2013-02-18 10:33:00,
2013-02-18 02:34:00,30.7,25.6,30.07,SE,137,0.0,4.0,81,0.00,,---,0.00,VWS V14.00,2013-02-18 10:34:00,
2013-02-18 02:36:00,30.6,25.8,30.06,SE,137,0.0,4.0,82,0.00,,---,0.00,VWS V14.00,2013-02-18 10:36:00,
2013-02-18 02:37:00,30.6,25.8,30.07,SE,137,0.0,4.0,82,0.00,,---,0.00,VWS V14.00,2013-02-18 10:37:00,
2013-02-18 02:39:00,30.6,25.8,30.07,SE,137,0.0,4.0,82,0.00,,---,0.00,VWS V14.00,2013-02-18 10:39:00,
2013-02-18 02:41:00,30.5,25.7,30.06,SE,137,0.0,4.0,82,0.00,,---,0.00,VWS V14.00,2013-02-18 10:41:00,
2013-02-18 02:43:00,30.6,25.8,30.06,SE,137,0.0,4.0,82,0.00,,---,0.00,VWS V14.00,2013-02-18 10:43:00,
2013-02-18 02:44:00,30.6,25.8,30.06,SE,137,0.0,4.0,82,0.00,,---,0.00,VWS V14.00,2013-02-18 10:44:00,
2013-02-18 02:46:00,30.6,25.8,30.06,SE,137,0.0,4.0,82,0.00,,---,0.00,VWS V14.00,2013-02-18 10:46:00,
2013-02-18 02:48:00,30.6,25.8,30.06,SE,137,0.0,4.0,82,0.00,,---,0.00,VWS V14.00,2013-02-18 10:48:00,
2013-02-18 02:49:00,30.6,26.1,30.06,SE,137,0.0,4.0,83,0.00,,---,0.00,VWS V14.00,2013-02-18 10:49:00,
2013-02-18 02:51:00,30.7,25.9,30.06,SE,137,0.0,4.0,82,0.00,,---,0.00,VWS V14.00,2013-02-18 10:51:00,
2013-02-18 02:53:00,30.7,25.9,30.06,SE,137,0.0,4.0,82,0.00,,---,0.00,VWS V14.00,2013-02-18 10:53:00,
2013-02-18 02:54:00,30.7,25.9,30.06,SE,137,0.0,4.0,82,0.00,,---,0.00,VWS V14.00,2013-02-18 10:54:00,
2013-02-18 02:56:00,30.8,26.0,30.06,SE,137,0.0,4.0,82,0.00,,---,0.00,VWS V14.00,2013-02-18 10:56:00,
2013-02-18 02:58:00,30.8,26.0,30.06,SE,137,0.0,4.0,82,0.00,,---,0.00,VWS V14.00,2013-02-18 10:58:00,
2013-02-18 02:59:00,30.8,26.0,30.06,SE,137,0.0,4.0,82,0.00,,---,0.00,VWS V14.00,2013-02-18 10:59:00,
2013-02-18 03:00:00,29.5,25.3,30.05,SE,137,0.0,0.0,84,0.00,,---,0.00,VWS V14.00,2013-02-18 11:00:00,
2013-02-18 03:01:00,30.7,25.6,30.06,SE,137,0.0,4.0,81,0.00,,---,0.00,VWS V14.00,2013-02-18 11:01:00,
2013-02-18 03:03:00,30.6,25.5,30.06,SE,137,0.0,0.0,81,0.00,,---,0.00,VWS V14.00,2013-02-18 11:03:00,
2013-02-18 03:04:00,30.6,25.5,30.06,SE,137,0.0,0.0,81,0.00,,---,0.00,VWS V14.00,2013-02-18 11:04:00,
2013-02-18 03:06:00,30.5,25.7,30.06,SE,137,0.0,0.0,82,0.00,,---,0.00,VWS V14.00,2013-02-18 11:06:00,
2013-02-18 03:08:00,30.5,25.7,30.06,SE,137,0.0,0.0,82,0.00,,---,0.00,VWS V14.00,2013-02-18 11:08:00,
2013-02-18 03:09:00,30.5,25.7,30.06,SE,137,0.0,0.0,82,0.00,,---,0.00,VWS V14.00,2013-02-18 11:09:00,
2013-02-18 03:12:00,30.5,25.7,30.06,SE,137,0.0,0.0,82,0.00,,---,0.00,VWS V14.00,2013-02-18 11:12:00,
2013-02-18 03:14:00,30.5,25.7,30.06,SE,137,0.0,0.0,82,0.00,,---,0.00,VWS V14.00,2013-02-18 11:14:00,
2013-02-18 03:18:00,30.2,25.1,30.06,SE,137,0.0,0.0,81,0.00,,---,0.00,VWS V14.00,2013-02-18 11:18:00,
2013-02-18 03:19:00,30.1,25.0,30.06,SE,137,0.0,0.0,81,0.00,,---,0.00,VWS V14.00,2013-02-18 11:19:00,
2013-02-18 03:24:00,29.9,25.1,30.05,SE,137,0.0,2.0,82,0.00,,---,0.00,VWS V14.00,2013-02-18 11:24:00,
2013-02-18 03:25:00,29.9,25.4,30.06,SE,137,1.0,2.0,83,0.00,,---,0.00,VWS V14.00,2013-02-18 11:25:00,
2013-02-18 03:29:00,29.9,25.4,30.05,SE,137,0.0,2.0,83,0.00,,---,0.00,VWS V14.00,2013-02-18 11:29:00,
2013-02-18 03:30:00,30.0,25.5,30.05,SE,137,0.0,2.0,83,0.00,,---,0.00,VWS V14.00,2013-02-18 11:30:00,
2013-02-18 03:34:00,29.9,25.4,30.05,SE,137,0.0,0.0,83,0.00,,---,0.00,VWS V14.00,2013-02-18 11:34:00,
2013-02-18 03:35:00,29.9,25.1,30.05,SE,137,0.0,0.0,82,0.00,,---,0.00,VWS V14.00,2013-02-18 11:35:00,
2013-02-18 03:36:00,29.9,25.1,30.05,SE,137,0.0,0.0,82,0.00,,---,0.00,VWS V14.00,2013-02-18 11:36:00,
2013-02-18 03:39:00,29.7,24.9,30.05,SE,137,0.0,0.0,82,0.00,,---,0.00,VWS V14.00,2013-02-18 11:39:00,
2013-02-18 03:40:00,29.6,24.8,30.05,SE,137,0.0,0.0,82,0.00,,---,0.00,VWS V14.00,2013-02-18 11:40:00,
2013-02-18 03:41:00,29.6,24.8,30.05,SE,137,0.0,0.0,82,0.00,,---,0.00,VWS V14.00,2013-02-18 11:41:00,
2013-02-18 03:45:00,29.4,24.9,30.05,SE,137,0.0,0.0,83,0.00,,---,0.00,VWS V14.00,2013-02-18 11:45:00,
2013-02-18 03:46:00,29.4,24.9,30.05,SE,137,0.0,0.0,83,0.00,,---,0.00,VWS V14.00,2013-02-18 11:46:00,
2013-02-18 03:50:00,29.3,24.8,30.05,SE,137,0.0,0.0,83,0.00,,---,0.00,VWS V14.00,2013-02-18 11:50:00,
2013-02-18 03:51:00,29.3,24.8,30.05,SE,137,0.0,0.0,83,0.00,,---,0.00,VWS V14.00,2013-02-18 11:51:00,
2013-02-18 03:55:00,29.2,25.0,30.05,SE,137,0.0,0.0,84,0.00,,---,0.00,VWS V14.00,2013-02-18 11:55:00,
2013-02-18 03:56:00,29.2,25.0,30.05,SE,137,0.0,0.0,84,0.00,,---,0.00,VWS V14.00,2013-02-18 11:56:00,
2013-02-18 04:00:00,29.4,25.5,30.05,SE,137,0.0,0.0,85,0.00,,---,0.00,VWS V14.00,2013-02-18 12:00:00,
2013-02-18 04:01:00,29.5,25.6,30.05,SE,137,0.0,0.0,85,0.00,,---,0.00,VWS V14.00,2013-02-18 12:01:00,
2013-02-18 04:02:00,29.5,25.3,30.05,SE,137,0.0,0.0,84,0.00,,---,0.00,VWS V14.00,2013-02-18 12:02:00,
2013-02-18 04:06:00,29.6,25.4,30.04,SE,137,0.0,4.0,84,0.00,,---,0.00,VWS V14.00,2013-02-18 12:06:00,
2013-02-18 04:07:00,29.6,25.4,30.04,SE,137,0.0,4.0,84,0.00,,---,0.00,VWS V14.00,2013-02-18 12:07:00,
2013-02-18 04:11:00,29.7,25.5,30.04,SE,137,0.0,4.0,84,0.00,,---,0.00,VWS V14.00,2013-02-18 12:11:00,
2013-02-18 04:12:00,29.8,25.6,30.04,SE,137,0.0,4.0,84,0.00,,---,0.00,VWS V14.00,2013-02-18 12:12:00,
2013-02-18 04:16:00,30.0,25.8,30.04,SE,137,0.0,4.0,84,0.00,,---,0.00,VWS V14.00,2013-02-18 12:16:00,
2013-02-18 04:17:00,30.0,25.8,30.04,SE,137,0.0,4.0,84,0.00,,---,0.00,VWS V14.00,2013-02-18 12:17:00,
2013-02-18 04:21:00,29.8,25.3,30.04,SE,137,0.0,4.0,83,0.00,,---,0.00,VWS V14.00,2013-02-18 12:21:00,
2013-02-18 04:22:00,29.7,25.2,30.04,SE,137,0.0,4.0,83,0.00,,---,0.00,VWS V14.00,2013-02-18 12:22:00,
2013-02-18 04:26:00,29.5,25.0,30.04,SE,137,0.0,4.0,83,0.00,,---,0.00,VWS V14.00,2013-02-18 12:26:00,
2013-02-18 04:28:00,29.4,24.9,30.04,SE,137,1.0,4.0,83,0.00,,---,0.00,VWS V14.00,2013-02-18 12:28:00,
2013-02-18 04:30:00,28.1,24.5,30.02,SE,137,0.0,4.0,86,0.00,,---,0.00,VWS V14.00,2013-02-18 12:30:00,
2013-02-18 04:31:00,29.4,25.2,30.04,SE,137,0.0,4.0,84,0.00,,---,0.00,VWS V14.00,2013-02-18 12:31:00,
2013-02-18 04:32:00,29.4,25.2,30.04,SE,137,0.0,0.0,84,0.00,,---,0.00,VWS V14.00,2013-02-18 12:32:00,
2013-02-18 04:33:00,29.5,25.3,30.04,SE,137,0.0,0.0,84,0.00,,---,0.00,VWS V14.00,2013-02-18 12:33:00,
2013-02-18 04:36:00,29.4,25.2,30.04,SE,137,0.0,0.0,84,0.00,,---,0.00,VWS V14.00,2013-02-18 12:36:00,
2013-02-18 04:37:00,29.4,25.2,30.04,SE,137,0.0,0.0,84,0.00,,---,0.00,VWS V14.00,2013-02-18 12:37:00,
2013-02-18 04:38:00,29.3,24.8,30.04,SE,137,0.0,0.0,83,0.00,,---,0.00,VWS V14.00,2013-02-18 12:38:00,
2013-02-18 04:41:00,29.1,24.6,30.04,SE,137,0.0,0.0,83,0.00,,---,0.00,VWS V14.00,2013-02-18 12:41:00,
2013-02-18 04:43:00,28.9,24.4,30.03,SE,137,0.0,0.0,83,0.00,,---,0.00,VWS V14.00,2013-02-18 12:43:00,
2013-02-18 04:46:00,28.6,24.1,30.03,SE,137,0.0,0.0,83,0.00,,---,0.00,VWS V14.00,2013-02-18 12:46:00,
2013-02-18 04:48:00,28.4,23.9,30.03,SE,137,0.0,0.0,83,0.00,,---,0.00,VWS V14.00,2013-02-18 12:48:00,
2013-02-18 04:51:00,28.1,23.9,30.03,SE,137,0.0,0.0,84,0.00,,---,0.00,VWS V14.00,2013-02-18 12:51:00,
2013-02-18 04:53:00,28.0,23.8,30.03,SE,137,1.0,2.0,84,0.00,,---,0.00,VWS V14.00,2013-02-18 12:53:00,
2013-02-18 04:54:00,28.0,23.8,30.03,SE,137,0.0,2.0,84,0.00,,---,0.00,VWS V14.00,2013-02-18 12:54:00,
2013-02-18 04:56:00,28.0,24.1,30.03,SE,137,0.0,2.0,85,0.00,,---,0.00,VWS V14.00,2013-02-18 12:56:00,
2013-02-18 04:59:00,28.1,24.5,30.03,SE,137,0.0,2.0,86,0.00,,---,0.00,VWS V14.00,2013-02-18 12:59:00,
2013-02-18 05:00:00,28.1,24.5,30.01,SE,137,0.0,0.0,86,0.00,,---,0.00,VWS V14.00,2013-02-18 13:00:00,
2013-02-18 05:01:00,28.3,24.7,30.03,SE,137,0.0,2.0,86,0.00,,---,0.00,VWS V14.00,2013-02-18 13:01:00,
2013-02-18 05:04:00,28.3,24.7,30.03,SE,137,0.0,0.0,86,0.00,,---,0.00,VWS V14.00,2013-02-18 13:04:00,
2013-02-18 05:06:00,28.3,24.7,30.03,SE,137,0.0,0.0,86,0.00,,---,0.00,VWS V14.00,2013-02-18 13:06:00,
2013-02-18 05:09:00,28.2,24.6,30.03,SE,137,2.0,4.0,86,0.00,,---,0.00,VWS V14.00,2013-02-18 13:09:00,
2013-02-18 05:12:00,28.1,24.5,30.02,SE,137,0.0,4.0,86,0.00,,---,0.00,VWS V14.00,2013-02-18 13:12:00,
2013-02-18 05:14:00,28.1,24.5,30.02,SE,137,0.0,4.0,86,0.00,,---,0.00,VWS V14.00,2013-02-18 13:14:00,
2013-02-18 05:15:00,28.1,24.5,30.02,SE,137,0.0,4.0,86,0.00,,---,0.00,VWS V14.00,2013-02-18 13:15:00,
2013-02-18 05:17:00,28.1,24.5,30.02,SE,137,0.0,4.0,86,0.00,,---,0.00,VWS V14.00,2013-02-18 13:17:00,
2013-02-18 05:19:00,28.1,24.5,30.02,SE,137,0.0,4.0,86,0.00,,---,0.00,VWS V14.00,2013-02-18 13:19:00,
2013-02-18 05:20:00,28.1,24.5,30.02,SE,137,0.0,4.0,86,0.00,,---,0.00,VWS V14.00,2013-02-18 13:20:00,
2013-02-18 05:22:00,28.1,24.5,30.02,SE,137,0.0,4.0,86,0.00,,---,0.00,VWS V14.00,2013-02-18 13:22:00,
2013-02-18 05:24:00,28.1,24.5,30.02,SE,137,0.0,4.0,86,0.00,,---,0.00,VWS V14.00,2013-02-18 13:24:00,
2013-02-18 05:25:00,28.1,24.5,30.02,SE,137,0.0,4.0,86,0.00,,---,0.00,VWS V14.00,2013-02-18 13:25:00,
2013-02-18 05:27:00,28.1,24.5,30.02,SE,137,0.0,4.0,86,0.00,,---,0.00,VWS V14.00,2013-02-18 13:27:00,
2013-02-18 05:30:00,28.1,24.5,30.02,SE,137,0.0,4.0,86,0.00,,---,0.00,VWS V14.00,2013-02-18 13:30:00,
2013-02-18 05:33:00,28.1,24.5,30.02,SE,137,0.0,0.0,86,0.00,,---,0.00,VWS V14.00,2013-02-18 13:33:00,
2013-02-18 05:35:00,28.1,24.5,30.02,SE,137,0.0,0.0,86,0.00,,---,0.00,VWS V14.00,2013-02-18 13:35:00,
2013-02-18 05:38:00,28.1,24.5,30.02,SE,137,0.0,0.0,86,0.00,,---,0.00,VWS V14.00,2013-02-18 13:38:00,
2013-02-18 05:40:00,28.1,24.5,30.02,SE,137,0.0,0.0,86,0.00,,---,0.00,VWS V14.00,2013-02-18 13:40:00,
2013-02-18 05:43:00,28.1,24.5,30.02,SE,137,0.0,0.0,86,0.00,,---,0.00,VWS V14.00,2013-02-18 13:43:00,
2013-02-18 05:45:00,28.1,24.5,30.02,SE,137,0.0,0.0,86,0.00,,---,0.00,VWS V14.00,2013-02-18 13:45:00,
2013-02-18 05:48:00,28.1,24.5,30.02,SE,137,0.0,0.0,86,0.00,,---,0.00,VWS V14.00,2013-02-18 13:48:00,
2013-02-18 05:50:00,28.1,24.5,30.02,SE,137,0.0,0.0,86,0.00,,---,0.00,VWS V14.00,2013-02-18 13:50:00,
2013-02-18 05:53:00,28.1,24.5,30.02,SE,137,0.0,0.0,86,0.00,,---,0.00,VWS V14.00,2013-02-18 13:53:00,
2013-02-18 05:55:00,28.1,24.5,30.02,SE,137,0.0,0.0,86,0.00,,---,0.00,VWS V14.00,2013-02-18 13:55:00,
2013-02-18 05:58:00,28.1,24.5,30.01,SE,137,0.0,0.0,86,0.00,,---,0.00,VWS V14.00,2013-02-18 13:58:00,
2013-02-18 06:00:00,28.1,24.5,30.01,SE,137,0.0,0.0,86,0.00,,---,0.00,VWS V14.00,2013-02-18 14:00:00,
2013-02-18 06:01:00,28.1,24.5,30.01,SE,137,0.0,0.0,86,0.00,,---,0.00,VWS V14.00,2013-02-18 14:01:00,
2013-02-18 06:03:00,28.1,24.5,30.01,SE,137,0.0,0.0,86,0.00,,---,0.00,VWS V14.00,2013-02-18 14:03:00,
2013-02-18 06:05:00,28.1,24.5,30.01,SE,137,0.0,0.0,86,0.00,,---,0.00,VWS V14.00,2013-02-18 14:05:00,
2013-02-18 06:06:00,28.1,24.5,30.01,SE,137,0.0,0.0,86,0.00,,---,0.00,VWS V14.00,2013-02-18 14:06:00,
2013-02-18 06:09:00,28.1,24.5,30.01,SE,137,0.0,0.0,86,0.00,,---,0.00,VWS V14.00,2013-02-18 14:09:00,
2013-02-18 06:10:00,28.1,24.5,30.01,SE,137,0.0,0.0,86,0.00,,---,0.00,VWS V14.00,2013-02-18 14:10:00,
2013-02-18 06:11:00,28.1,24.5,30.01,SE,137,0.0,0.0,86,0.00,,---,0.00,VWS V14.00,2013-02-18 14:11:00,
2013-02-18 06:15:00,28.1,24.5,30.01,SE,137,0.0,0.0,86,0.00,,---,0.00,VWS V14.00,2013-02-18 14:15:00,
2013-02-18 06:16:00,28.1,24.5,30.01,SE,137,0.0,0.0,86,0.00,,---,0.00,VWS V14.00,2013-02-18 14:16:00,
2013-02-18 06:17:00,28.1,24.5,30.01,SE,137,0.0,0.0,86,0.00,,---,0.00,VWS V14.00,2013-02-18 14:17:00,
2013-02-18 06:20:00,28.1,24.5,30.01,SE,137,0.0,0.0,86,0.00,,---,0.00,VWS V14.00,2013-02-18 14:20:00,
2013-02-18 06:21:00,28.1,24.5,30.01,SE,137,0.0,0.0,86,0.00,,---,0.00,VWS V14.00,2013-02-18 14:21:00,
2013-02-18 06:22:00,28.1,24.5,30.01,SE,137,0.0,0.0,86,0.00,,---,0.00,VWS V14.00,2013-02-18 14:22:00,
2013-02-18 06:25:00,28.1,24.5,30.00,SE,137,0.0,0.0,86,0.00,,---,0.00,VWS V14.00,2013-02-18 14:25:00,
2013-02-18 06:26:00,28.1,24.5,30.00,SE,137,0.0,0.0,86,0.00,,---,0.00,VWS V14.00,2013-02-18 14:26:00,
2013-02-18 06:27:00,28.1,24.5,30.00,SE,137,0.0,0.0,86,0.00,,---,0.00,VWS V14.00,2013-02-18 14:27:00,
2013-02-18 06:30:00,28.1,24.5,30.00,SE,137,0.0,0.0,86,0.00,,---,0.00,VWS V14.00,2013-02-18 14:30:00,
2013-02-18 06:32:00,28.1,24.5,30.00,SE,137,0.0,0.0,86,0.00,,---,0.00,VWS V14.00,2013-02-18 14:32:00,
2013-02-18 06:35:00,28.1,24.5,30.00,SE,137,0.0,0.0,86,0.00,,---,0.00,VWS V14.00,2013-02-18 14:35:00,
2013-02-18 06:37:00,28.1,24.5,30.00,SE,137,0.0,0.0,86,0.00,,---,0.00,VWS V14.00,2013-02-18 14:37:00,
2013-02-18 06:38:00,28.1,24.5,30.00,SE,137,0.0,0.0,86,0.00,,---,0.00,VWS V14.00,2013-02-18 14:38:00,
2013-02-18 06:40:00,28.1,24.5,30.00,SE,137,0.0,0.0,86,0.00,,---,0.00,VWS V14.00,2013-02-18 14:40:00,
2013-02-18 06:42:00,28.1,24.5,30.00,SE,137,0.0,0.0,86,0.00,,---,0.00,VWS V14.00,2013-02-18 14:42:00,
2013-02-18 06:43:00,28.1,24.5,30.00,SE,137,0.0,0.0,86,0.00,,---,0.00,VWS V14.00,2013-02-18 14:43:00,
2013-02-18 06:45:00,28.1,24.5,30.00,SE,137,0.0,0.0,86,0.00,,---,0.00,VWS V14.00,2013-02-18 14:45:00,
2013-02-18 06:48:00,28.1,24.5,30.00,SE,137,0.0,0.0,86,0.00,,---,0.00,VWS V14.00,2013-02-18 14:48:00,
2013-02-18 06:50:00,28.1,24.5,30.00,SE,137,0.0,0.0,86,0.00,,---,0.00,VWS V14.00,2013-02-18 14:50:00,
2013-02-18 06:53:00,28.1,24.5,30.00,SE,137,0.0,0.0,86,0.00,,---,0.00,VWS V14.00,2013-02-18 14:53:00,
2013-02-18 06:56:00,28.1,24.5,30.00,SE,137,0.0,0.0,86,0.00,,---,0.00,VWS V14.00,2013-02-18 14:56:00,
2013-02-18 06:58:00,28.1,24.5,29.99,SE,137,0.0,0.0,86,0.00,,---,0.00,VWS V14.00,2013-02-18 14:58:00,
2013-02-18 06:59:00,28.1,24.5,29.99,SE,137,0.0,0.0,86,0.00,,---,0.00,VWS V14.00,2013-02-18 14:59:00,
2013-02-18 07:00:00,28.1,24.5,29.98,SE,137,0.0,0.0,86,0.00,,---,0.00,VWS V14.00,2013-02-18 15:00:00,
2013-02-18 07:02:00,28.1,24.5,29.99,SE,137,0.0,0.0,86,0.00,,---,0.00,VWS V14.00,2013-02-18 15:02:00,
2013-02-18 07:04:00,28.1,24.5,29.99,SE,137,0.0,0.0,86,0.00,,---,0.00,VWS V14.00,2013-02-18 15:04:00,
2013-02-18 07:07:00,28.1,24.5,29.99,SE,137,0.0,0.0,86,0.00,,---,0.00,VWS V14.00,2013-02-18 15:07:00,
2013-02-18 07:09:00,28.1,24.5,29.99,SE,137,0.0,0.0,86,0.00,,---,0.00,VWS V14.00,2013-02-18 15:09:00,
2013-02-18 07:10:00,28.1,24.5,29.99,SE,137,0.0,0.0,86,0.00,,---,0.00,VWS V14.00,2013-02-18 15:10:00,
2013-02-18 07:12:00,28.1,24.5,29.99,SE,137,0.0,0.0,86,0.00,,---,0.00,VWS V14.00,2013-02-18 15:12:00,
2013-02-18 07:14:00,28.1,24.5,29.99,SE,137,0.0,0.0,86,0.00,,---,0.00,VWS V14.00,2013-02-18 15:14:00,
2013-02-18 07:15:00,28.1,24.5,29.99,SE,137,0.0,0.0,86,0.00,,---,0.00,VWS V14.00,2013-02-18 15:15:00,
2013-02-18 07:17:00,28.1,24.5,29.99,SE,137,0.0,0.0,86,0.00,,---,0.00,VWS V14.00,2013-02-18 15:17:00,
2013-02-18 07:20:00,28.1,24.5,29.99,SE,137,0.0,0.0,86,0.00,,---,0.00,VWS V14.00,2013-02-18 15:20:00,
2013-02-18 07:22:00,28.1,24.5,29.99,SE,137,0.0,0.0,86,0.00,,---,0.00,VWS V14.00,2013-02-18 15:22:00,
2013-02-18 07:26:00,28.1,24.5,29.99,SE,137,0.0,0.0,86,0.00,,---,0.00,VWS V14.00,2013-02-18 15:26:00,
2013-02-18 07:27:00,28.1,24.5,29.99,SE,137,0.0,0.0,86,0.00,,---,0.00,VWS V14.00,2013-02-18 15:27:00,
2013-02-18 07:30:00,28.1,24.5,29.97,SE,137,0.0,0.0,86,0.00,,---,0.00,VWS V14.00,2013-02-18 15:30:00,
2013-02-18 07:31:00,28.1,24.5,29.99,SE,137,0.0,0.0,86,0.00,,---,0.00,VWS V14.00,2013-02-18 15:31:00,
2013-02-18 07:32:00,28.1,24.5,29.98,SE,137,0.0,0.0,86,0.00,,---,0.00,VWS V14.00,2013-02-18 15:32:00,
2013-02-18 07:36:00,28.1,24.5,29.98,SE,137,0.0,0.0,86,0.00,,---,0.00,VWS V14.00,2013-02-18 15:36:00,
2013-02-18 07:38:00,28.1,24.5,29.98,SE,137,0.0,0.0,86,0.00,,---,0.00,VWS V14.00,2013-02-18 15:38:00,
2013-02-18 07:41:00,28.1,24.5,29.98,SE,137,0.0,0.0,86,0.00,,---,0.00,VWS V14.00,2013-02-18 15:41:00,
2013-02-18 07:43:00,28.1,24.5,29.98,SE,137,0.0,0.0,86,0.00,,---,0.00,VWS V14.00,2013-02-18 15:43:00,
2013-02-18 07:46:00,28.1,24.5,29.98,SE,137,0.0,0.0,86,0.00,,---,0.00,VWS V14.00,2013-02-18 15:46:00,
2013-02-18 07:47:00,28.1,24.5,29.98,SE,137,0.0,0.0,86,0.00,,---,0.00,VWS V14.00,2013-02-18 15:47:00,
2013-02-18 07:48:00,28.1,24.5,29.98,SE,137,0.0,0.0,86,0.00,,---,0.00,VWS V14.00,2013-02-18 15:48:00,
2013-02-18 07:52:00,28.1,24.5,29.98,SE,137,0.0,0.0,86,0.00,,---,0.00,VWS V14.00,2013-02-18 15:52:00,
2013-02-18 07:53:00,28.1,24.5,29.98,SE,137,0.0,0.0,86,0.00,,---,0.00,VWS V14.00,2013-02-18 15:53:00,
2013-02-18 07:57:00,28.1,24.5,29.98,SE,137,0.0,0.0,86,0.00,,---,0.00,VWS V14.00,2013-02-18 15:57:00,
2013-02-18 07:58:00,28.1,24.5,29.98,SE,137,0.0,0.0,86,0.00,,---,0.00,VWS V14.00,2013-02-18 15:58:00,
2013-02-18 08:00:00,28.1,24.5,29.97,SE,137,0.0,0.0,86,0.00,,---,0.00,VWS V14.00,2013-02-18 16:00:00,
2013-02-18 08:02:00,28.1,24.5,29.98,SE,137,0.0,0.0,86,0.00,,---,0.00,VWS V14.00,2013-02-18 16:02:00,
2013-02-18 08:03:00,28.1,24.5,29.98,SE,137,0.0,0.0,86,0.00,,---,0.00,VWS V14.00,2013-02-18 16:03:00,
2013-02-18 08:07:00,28.1,24.5,29.97,SE,137,0.0,0.0,86,0.00,,---,0.00,VWS V14.00,2013-02-18 16:07:00,
2013-02-18 08:08:00,28.1,24.5,29.98,SE,137,0.0,0.0,86,0.00,,---,0.00,VWS V14.00,2013-02-18 16:08:00,
2013-02-18 08:12:00,28.1,24.5,29.97,SE,137,0.0,0.0,86,0.00,,---,0.00,VWS V14.00,2013-02-18 16:12:00,
2013-02-18 08:14:00,28.1,24.5,29.97,SE,137,0.0,0.0,86,0.00,,---,0.00,VWS V14.00,2013-02-18 16:14:00,
2013-02-18 08:18:00,28.1,24.5,29.97,SE,137,0.0,0.0,86,0.00,,---,0.00,VWS V14.00,2013-02-18 16:18:00,
2013-02-18 08:19:00,28.1,24.5,29.97,SE,137,0.0,0.0,86,0.00,,---,0.00,VWS V14.00,2013-02-18 16:19:00,
2013-02-18 08:23:00,28.1,24.5,29.97,SE,137,0.0,0.0,86,0.00,,---,0.00,VWS V14.00,2013-02-18 16:23:00,
2013-02-18 08:24:00,28.1,24.5,29.97,SE,137,0.0,0.0,86,0.00,,---,0.00,VWS V14.00,2013-02-18 16:24:00,
2013-02-18 08:28:00,28.1,24.5,29.97,SE,137,0.0,0.0,86,0.00,,---,0.00,VWS V14.00,2013-02-18 16:28:00,
2013-02-18 08:30:00,28.1,24.5,29.97,SE,137,0.0,0.0,86,0.00,,---,0.00,VWS V14.00,2013-02-18 16:30:00,
2013-02-18 08:33:00,28.1,24.5,29.97,SE,137,0.0,0.0,86,0.00,,---,0.00,VWS V14.00,2013-02-18 16:33:00,
2013-02-18 08:34:00,28.1,24.5,29.97,SE,137,0.0,0.0,86,0.00,,---,0.00,VWS V14.00,2013-02-18 16:34:00,
2013-02-18 08:35:00,28.1,24.5,29.97,SE,137,0.0,0.0,86,0.00,,---,0.00,VWS V14.00,2013-02-18 16:35:00,
2013-02-18 08:38:00,28.1,24.5,29.97,SE,137,0.0,0.0,86,0.00,,---,0.00,VWS V14.00,2013-02-18 16:38:00,
2013-02-18 08:39:00,28.1,24.5,29.97,SE,137,0.0,0.0,86,0.00,,---,0.00,VWS V14.00,2013-02-18 16:39:00,
2013-02-18 08:40:00,28.1,24.5,29.98,SE,137,0.0,0.0,86,0.00,,---,0.00,VWS V14.00,2013-02-18 16:40:00,
2013-02-18 08:43:00,28.1,24.5,29.97,SE,137,0.0,0.0,86,0.00,,---,0.00,VWS V14.00,2013-02-18 16:43:00,
2013-02-18 08:44:00,28.1,24.5,29.97,SE,137,0.0,0.0,86,0.00,,---,0.00,VWS V14.00,2013-02-18 16:44:00,
2013-02-18 08:45:00,28.1,24.5,29.97,SE,137,0.0,0.0,86,0.00,,---,0.00,VWS V14.00,2013-02-18 16:45:00,
2013-02-18 08:49:00,28.1,24.5,29.97,SE,137,0.0,0.0,86,0.00,,---,0.00,VWS V14.00,2013-02-18 16:49:00,
2013-02-18 08:50:00,28.1,24.5,29.97,SE,137,0.0,0.0,86,0.00,,---,0.00,VWS V14.00,2013-02-18 16:50:00,
2013-02-18 08:54:00,28.1,24.5,29.97,SE,137,0.0,0.0,86,0.00,,---,0.00,VWS V14.00,2013-02-18 16:54:00,
2013-02-18 08:56:00,28.1,24.5,29.97,SE,137,0.0,0.0,86,0.00,,---,0.00,VWS V14.00,2013-02-18 16:56:00,
2013-02-18 08:59:00,28.1,24.5,29.97,SE,137,0.0,0.0,86,0.00,,---,0.00,VWS V14.00,2013-02-18 16:59:00,
2013-02-18 09:00:00,37.0,30.8,29.96,ENE,57,3.0,6.0,78,0.00,,---,0.00,VWS V14.00,2013-02-18 17:00:00,
2013-02-18 09:01:00,28.1,24.5,29.97,SE,137,0.0,0.0,86,0.00,,---,0.00,VWS V14.00,2013-02-18 17:01:00,
2013-02-18 09:04:00,28.1,24.5,29.97,SE,137,0.0,0.0,86,0.00,,---,0.00,VWS V14.00,2013-02-18 17:04:00,
2013-02-18 09:06:00,28.1,24.5,29.97,SE,137,0.0,0.0,86,0.00,,---,0.00,VWS V14.00,2013-02-18 17:06:00,
2013-02-18 09:09:00,28.1,24.5,29.97,SE,137,0.0,0.0,86,0.00,,---,0.00,VWS V14.00,2013-02-18 17:09:00,
2013-02-18 09:11:00,28.1,24.5,29.97,SE,137,0.0,0.0,86,0.00,,---,0.00,VWS V14.00,2013-02-18 17:11:00,
2013-02-18 09:14:00,28.1,24.5,29.97,SE,137,0.0,0.0,86,0.00,,---,0.00,VWS V14.00,2013-02-18 17:14:00,
2013-02-18 09:15:00,28.1,24.5,29.97,SE,137,0.0,0.0,86,0.00,,---,0.00,VWS V14.00,2013-02-18 17:15:00,
2013-02-18 09:17:00,28.1,24.5,29.97,SE,137,0.0,0.0,86,0.00,,---,0.00,VWS V14.00,2013-02-18 17:17:00,
2013-02-18 09:20:00,28.1,24.5,29.97,SE,137,0.0,0.0,86,0.00,,---,0.00,VWS V14.00,2013-02-18 17:20:00,
2013-02-18 09:21:00,28.1,24.5,29.97,SE,137,0.0,0.0,86,0.00,,---,0.00,VWS V14.00,2013-02-18 17:21:00,
2013-02-18 09:22:00,28.1,24.5,29.97,SE,137,0.0,0.0,86,0.00,,---,0.00,VWS V14.00,2013-02-18 17:22:00,
2013-02-18 09:25:00,28.1,24.5,29.96,SE,137,0.0,0.0,86,0.00,,---,0.00,VWS V14.00,2013-02-18 17:25:00,
2013-02-18 09:26:00,28.1,24.5,29.96,SE,137,0.0,0.0,86,0.00,,---,0.00,VWS V14.00,2013-02-18 17:26:00,
2013-02-18 09:27:00,28.1,24.5,29.96,SE,137,0.0,0.0,86,0.00,,---,0.00,VWS V14.00,2013-02-18 17:27:00,
2013-02-18 09:30:00,28.1,24.5,29.96,SE,137,0.0,0.0,86,0.00,,---,0.00,VWS V14.00,2013-02-18 17:30:00,
2013-02-18 09:31:00,28.1,24.5,29.96,SE,137,0.0,0.0,86,0.00,,---,0.00,VWS V14.00,2013-02-18 17:31:00,
2013-02-18 09:33:00,28.1,24.5,29.96,SE,137,0.0,0.0,86,0.00,,---,0.00,VWS V14.00,2013-02-18 17:33:00,
2013-02-18 09:36:00,28.1,24.5,29.95,SE,137,0.0,0.0,86,0.00,,---,0.00,VWS V14.00,2013-02-18 17:36:00,
2013-02-18 09:38:00,28.1,24.5,29.96,SE,137,0.0,0.0,86,0.00,,---,0.00,VWS V14.00,2013-02-18 17:38:00,
2013-02-18 09:41:00,28.1,24.5,29.96,SE,137,0.0,0.0,86,0.00,,---,0.00,VWS V14.00,2013-02-18 17:41:00,
2013-02-18 09:43:00,28.1,24.5,29.96,SE,137,0.0,0.0,86,0.00,,---,0.00,VWS V14.00,2013-02-18 17:43:00,
2013-02-18 09:46:00,28.1,24.5,29.96,SE,137,0.0,0.0,86,0.00,,---,0.00,VWS V14.00,2013-02-18 17:46:00,
2013-02-18 09:49:00,28.1,24.5,29.96,SE,137,0.0,0.0,86,0.00,,---,0.00,VWS V14.00,2013-02-18 17:49:00,
2013-02-18 09:51:00,28.1,24.5,29.96,SE,137,0.0,0.0,86,0.00,,---,0.00,VWS V14.00,2013-02-18 17:51:00,
2013-02-18 09:52:00,28.1,24.5,29.96,SE,137,0.0,0.0,86,0.00,,---,0.00,VWS V14.00,2013-02-18 17:52:00,
2013-02-18 09:54:00,28.1,24.5,29.96,SE,137,0.0,0.0,86,0.00,,---,0.00,VWS V14.00,2013-02-18 17:54:00,
2013-02-18 09:56:00,36.3,30.4,29.96,ENE,61,0.0,3.0,79,0.00,,---,0.00,VWS V14.00,2013-02-18 17:56:00,
2013-02-18 09:57:00,36.4,30.5,29.96,ENE,61,3.0,4.0,79,0.00,,---,0.00,VWS V14.00,2013-02-18 17:57:00,
2013-02-18 10:00:00,36.7,30.8,29.96,ENE,57,2.0,6.0,79,0.00,,---,0.00,VWS V14.00,2013-02-18 18:00:00,
2013-02-18 10:02:00,37.0,30.8,29.96,ENE,57,3.0,6.0,78,0.00,,---,0.00,VWS V14.00,2013-02-18 18:02:00,
2013-02-18 10:05:00,37.3,30.8,29.96,NE,50,6.0,7.0,77,0.00,,---,0.00,VWS V14.00,2013-02-18 18:05:00,
2013-02-18 10:07:00,37.4,30.9,29.96,NE,34,5.0,8.0,77,0.00,,---,0.00,VWS V14.00,2013-02-18 18:07:00,
2013-02-18 10:11:00,37.7,31.1,29.95,NNE,31,5.0,8.0,77,0.00,,---,0.00,VWS V14.00,2013-02-18 18:11:00,
2013-02-18 10:12:00,37.9,31.0,29.95,NNE,29,6.0,8.0,76,0.00,,---,0.00,VWS V14.00,2013-02-18 18:12:00,
2013-02-18 10:16:00,38.1,31.2,29.95,NNE,22,6.0,8.0,76,0.00,,---,0.00,VWS V14.00,2013-02-18 18:16:00,
2013-02-18 10:17:00,38.2,31.0,29.95,North,5,7.0,10.0,75,0.00,,---,0.00,VWS V14.00,2013-02-18 18:17:00,
2013-02-18 10:22:00,38.4,30.9,29.95,North,5,2.0,10.0,74,0.00,,---,0.00,VWS V14.00,2013-02-18 18:22:00,
2013-02-18 10:23:00,38.5,31.0,29.95,North,5,4.0,10.0,74,0.00,,---,0.00,VWS V14.00,2013-02-18 18:23:00,
2013-02-18 10:27:00,38.8,30.9,29.95,North,5,0.0,10.0,73,0.00,,---,0.00,VWS V14.00,2013-02-18 18:27:00,
2013-02-18 10:28:00,38.8,30.9,29.95,North,5,6.0,10.0,73,0.00,,---,0.00,VWS V14.00,2013-02-18 18:28:00,
2013-02-18 10:30:00,42.3,32.5,29.94,North,355,4.0,8.0,68,0.00,,---,0.00,VWS V14.00,2013-02-18 18:30:00,
2013-02-18 10:32:00,39.2,32.3,29.95,North,5,4.0,10.0,76,0.00,,---,0.00,VWS V14.00,2013-02-18 18:32:00,
2013-02-18 10:33:00,39.3,32.4,29.95,North,5,3.0,5.0,76,0.00,,---,0.00,VWS V14.00,2013-02-18 18:33:00,
2013-02-18 10:37:00,39.6,31.0,29.95,North,5,3.0,8.0,71,0.00,,---,0.00,VWS V14.00,2013-02-18 18:37:00,
2013-02-18 10:38:00,39.6,31.0,29.95,North,5,2.0,8.0,71,0.00,,---,0.00,VWS V14.00,2013-02-18 18:38:00,
2013-02-18 10:42:00,39.9,31.3,29.95,North,5,0.0,8.0,71,0.00,,---,0.00,VWS V14.00,2013-02-18 18:42:00,
2013-02-18 10:43:00,39.9,31.3,29.95,North,5,3.0,8.0,71,0.00,,---,0.00,VWS V14.00,2013-02-18 18:43:00,
2013-02-18 10:48:00,40.2,31.6,29.95,North,5,1.0,8.0,71,0.00,,---,0.00,VWS V14.00,2013-02-18 18:48:00,
2013-02-18 10:53:00,40.6,31.6,29.95,North,5,1.0,8.0,70,0.00,,---,0.00,VWS V14.00,2013-02-18 18:53:00,
2013-02-18 10:54:00,40.6,31.6,29.95,North,5,2.0,8.0,70,0.00,,---,0.00,VWS V14.00,2013-02-18 18:54:00,
2013-02-18 10:58:00,40.9,31.9,29.95,North,5,2.0,8.0,70,0.00,,---,0.00,VWS V14.00,2013-02-18 18:58:00,
2013-02-18 10:59:00,40.9,31.5,29.95,North,360,4.0,8.0,69,0.00,,---,0.00,VWS V14.00,2013-02-18 18:59:00,
2013-02-18 11:00:00,43.6,33.4,29.93,NNW,333,5.0,9.0,67,0.00,,---,0.00,VWS V14.00,2013-02-18 19:00:00,
2013-02-18 11:03:00,41.0,31.6,29.95,North,360,3.0,5.0,69,0.00,,---,0.00,VWS V14.00,2013-02-18 19:03:00,
2013-02-18 11:04:00,41.0,33.0,29.95,North,360,1.0,5.0,73,0.00,,---,0.00,VWS V14.00,2013-02-18 19:04:00,
2013-02-18 11:09:00,41.6,31.8,29.95,North,360,3.0,6.0,68,0.00,,---,0.00,VWS V14.00,2013-02-18 19:09:00,
2013-02-18 11:14:00,41.6,31.5,29.95,North,360,3.0,7.0,67,0.00,,---,0.00,VWS V14.00,2013-02-18 19:14:00,
2013-02-18 11:19:00,41.7,32.3,29.95,North,360,4.0,7.0,69,0.00,,---,0.00,VWS V14.00,2013-02-18 19:19:00,
2013-02-18 11:24:00,42.1,32.3,29.95,North,355,2.0,7.0,68,0.00,,---,0.00,VWS V14.00,2013-02-18 19:24:00,
2013-02-18 11:25:00,42.2,32.4,29.94,North,355,5.0,7.0,68,0.00,,---,0.00,VWS V14.00,2013-02-18 19:25:00,
2013-02-18 11:29:00,42.2,32.4,29.94,North,355,4.0,8.0,68,0.00,,---,0.00,VWS V14.00,2013-02-18 19:29:00,
2013-02-18 11:30:00,42.3,32.5,29.94,North,355,3.0,8.0,68,0.00,,---,0.00,VWS V14.00,2013-02-18 19:30:00,
2013-02-18 11:35:00,42.4,32.6,29.93,North,355,2.0,4.0,68,0.00,,---,0.00,VWS V14.00,2013-02-18 19:35:00,
2013-02-18 11:36:00,42.4,32.6,29.93,North,355,3.0,4.0,68,0.00,,---,0.00,VWS V14.00,2013-02-18 19:36:00,
2013-02-18 11:40:00,42.5,32.3,29.93,North,355,2.0,6.0,67,0.00,,---,0.00,VWS V14.00,2013-02-18 19:40:00,
2013-02-18 11:41:00,42.6,32.8,29.93,North,355,2.0,6.0,68,0.00,,---,0.00,VWS V14.00,2013-02-18 19:41:00,
2013-02-18 11:45:00,42.9,33.1,29.93,North,355,5.0,6.0,68,0.00,,---,0.00,VWS V14.00,2013-02-18 19:45:00,
2013-02-18 11:46:00,42.9,33.1,29.93,North,355,6.0,6.0,68,0.00,,---,0.00,VWS V14.00,2013-02-18 19:46:00,
2013-02-18 11:50:00,43.4,33.2,29.93,North,355,4.0,7.0,67,0.00,,---,0.00,VWS V14.00,2013-02-18 19:50:00,
2013-02-18 11:51:00,43.4,33.2,29.93,North,355,3.0,7.0,67,0.00,,---,0.00,VWS V14.00,2013-02-18 19:51:00,
2013-02-18 11:56:00,43.6,33.4,29.93,NNW,335,5.0,9.0,67,0.00,,---,0.00,VWS V14.00,2013-02-18 19:56:00,
2013-02-18 12:00:00,44.3,32.5,29.90,NNW,331,0.0,7.0,63,0.00,,---,0.00,VWS V14.00,2013-02-18 20:00:00,
2013-02-18 12:01:00,43.6,33.0,29.93,NNW,334,4.0,9.0,66,0.00,,---,0.00,VWS V14.00,2013-02-18 20:01:00,
2013-02-18 12:06:00,43.5,33.3,29.92,NNW,331,6.0,8.0,67,0.00,,---,0.00,VWS V14.00,2013-02-18 20:06:00,
2013-02-18 12:11:00,43.4,32.8,29.92,NNW,329,5.0,8.0,66,0.00,,---,0.00,VWS V14.00,2013-02-18 20:11:00,
2013-02-18 12:12:00,43.4,32.8,29.92,NNW,329,2.0,8.0,66,0.00,,---,0.00,VWS V14.00,2013-02-18 20:12:00,
2013-02-18 12:16:00,43.5,32.9,29.92,NNW,329,3.0,8.0,66,0.00,,---,0.00,VWS V14.00,2013-02-18 20:16:00,
2013-02-18 12:17:00,43.5,32.9,29.92,NNW,329,5.0,8.0,66,0.00,,---,0.00,VWS V14.00,2013-02-18 20:17:00,
2013-02-18 12:21:00,43.7,32.7,29.92,NNW,329,7.0,8.0,65,0.00,,---,0.00,VWS V14.00,2013-02-18 20:21:00,
2013-02-18 12:22:00,43.7,32.7,29.92,NNW,328,2.0,8.0,65,0.00,,---,0.00,VWS V14.00,2013-02-18 20:22:00,
2013-02-18 12:23:00,43.7,32.7,29.92,NNW,329,2.0,8.0,65,0.00,,---,0.00,VWS V14.00,2013-02-18 20:23:00,
2013-02-18 12:26:00,43.7,32.3,29.91,NNW,327,2.0,8.0,64,0.00,,---,0.00,VWS V14.00,2013-02-18 20:26:00,
2013-02-18 12:27:00,43.7,32.3,29.91,NNW,327,4.0,8.0,64,0.00,,---,0.00,VWS V14.00,2013-02-18 20:27:00,
2013-02-18 12:28:00,43.6,32.2,29.91,NNW,327,2.0,8.0,64,0.00,,---,0.00,VWS V14.00,2013-02-18 20:28:00,
2013-02-18 12:30:00,45.2,31.7,29.89,NNW,331,4.0,6.0,59,0.00,,---,0.00,VWS V14.00,2013-02-18 20:30:00,
2013-02-18 12:32:00,43.5,32.5,29.91,NNW,328,5.0,8.0,65,0.00,,---,0.00,VWS V14.00,2013-02-18 20:32:00,
2013-02-18 12:33:00,43.5,32.5,29.91,NNW,328,2.0,6.0,65,0.00,,---,0.00,VWS V14.00,2013-02-18 20:33:00,
2013-02-18 12:37:00,43.6,32.2,29.91,NNW,330,3.0,7.0,64,0.00,,---,0.00,VWS V14.00,2013-02-18 20:37:00,
2013-02-18 12:39:00,43.5,32.2,29.90,NNW,330,3.0,7.0,64,0.00,,---,0.00,VWS V14.00,2013-02-18 20:39:00,
2013-02-18 12:42:00,43.5,32.2,29.90,NNW,331,4.0,7.0,64,0.00,,---,0.00,VWS V14.00,2013-02-18 20:42:00,
2013-02-18 12:44:00,43.5,32.5,29.90,NNW,331,3.0,7.0,65,0.00,,---,0.00,VWS V14.00,2013-02-18 20:44:00,
2013-02-18 12:47:00,43.6,32.2,29.90,NNW,331,3.0,7.0,64,0.00,,---,0.00,VWS V14.00,2013-02-18 20:47:00,
2013-02-18 12:49:00,43.7,32.3,29.90,NNW,331,2.0,7.0,64,0.00,,---,0.00,VWS V14.00,2013-02-18 20:49:00,
2013-02-18 12:53:00,43.8,32.0,29.90,NNW,331,4.0,7.0,63,0.00,,---,0.00,VWS V14.00,2013-02-18 20:53:00,
2013-02-18 12:54:00,43.9,32.1,29.90,NNW,331,4.0,7.0,63,0.00,,---,0.00,VWS V14.00,2013-02-18 20:54:00,
2013-02-18 12:55:00,43.9,32.1,29.90,NNW,331,5.0,7.0,63,0.00,,---,0.00,VWS V14.00,2013-02-18 20:55:00,
2013-02-18 12:58:00,44.1,32.3,29.90,NNW,331,4.0,7.0,63,0.00,,---,0.00,VWS V14.00,2013-02-18 20:58:00,
2013-02-18 12:59:00,44.1,31.9,29.90,NNW,331,1.0,7.0,62,0.00,,---,0.00,VWS V14.00,2013-02-18 20:59:00,
2013-02-18 13:00:00,44.2,32.4,29.90,NNW,331,1.0,7.0,63,0.00,,---,0.00,VWS V14.00,2013-02-18 21:00:00,
2013-02-18 13:03:00,44.3,32.1,29.90,NNW,331,3.0,4.0,62,0.00,,---,0.00,VWS V14.00,2013-02-18 21:03:00,
2013-02-18 13:05:00,44.3,31.7,29.90,NNW,331,3.0,4.0,61,0.00,,---,0.00,VWS V14.00,2013-02-18 21:05:00,
2013-02-18 13:08:00,44.5,32.7,29.90,NNW,331,4.0,6.0,63,0.00,,---,0.00,VWS V14.00,2013-02-18 21:08:00,
2013-02-18 13:10:00,44.7,32.5,29.90,NNW,331,4.0,6.0,62,0.00,,---,0.00,VWS V14.00,2013-02-18 21:10:00,
2013-02-18 13:13:00,44.7,32.1,29.90,NNW,331,5.0,6.0,61,0.00,,---,0.00,VWS V14.00,2013-02-18 21:13:00,
2013-02-18 13:15:00,44.7,32.1,29.90,NNW,331,0.0,6.0,61,0.00,,---,0.00,VWS V14.00,2013-02-18 21:15:00,
2013-02-18 13:18:00,44.8,32.2,29.90,NNW,331,2.0,6.0,61,0.00,,---,0.00,VWS V14.00,2013-02-18 21:18:00,
2013-02-18 13:20:00,44.9,31.9,29.90,NNW,331,1.0,6.0,60,0.00,,---,0.00,VWS V14.00,2013-02-18 21:20:00,
2013-02-18 13:22:00,44.9,31.9,29.90,NNW,331,0.0,6.0,60,0.00,,---,0.00,VWS V14.00,2013-02-18 21:22:00,
2013-02-18 13:23:00,45.0,32.0,29.90,NNW,331,3.0,6.0,60,0.00,,---,0.00,VWS V14.00,2013-02-18 21:23:00,
2013-02-18 13:25:00,45.0,32.0,29.90,NNW,331,3.0,6.0,60,0.00,,---,0.00,VWS V14.00,2013-02-18 21:25:00,
2013-02-18 13:28:00,45.2,32.2,29.89,NNW,331,0.0,6.0,60,0.00,,---,0.00,VWS V14.00,2013-02-18 21:28:00,
2013-02-18 13:30:00,46.3,32.3,29.87,NNW,331,1.0,4.0,58,0.00,,---,0.00,VWS V14.00,2013-02-18 21:30:00,
2013-02-18 13:31:00,45.2,31.7,29.89,NNW,331,2.0,6.0,59,0.00,,---,0.00,VWS V14.00,2013-02-18 21:31:00,
2013-02-18 13:33:00,45.2,31.7,29.89,NNW,331,3.0,6.0,59,0.00,,---,0.00,VWS V14.00,2013-02-18 21:33:00,
2013-02-18 13:36:00,45.2,31.7,29.89,NNW,331,1.0,6.0,59,0.00,,---,0.00,VWS V14.00,2013-02-18 21:36:00,
2013-02-18 13:38:00,45.4,32.3,29.89,NNW,331,3.0,6.0,60,0.00,,---,0.00,VWS V14.00,2013-02-18 21:38:00,
2013-02-18 13:41:00,45.6,32.5,29.88,NNW,331,2.0,6.0,60,0.00,,---,0.00,VWS V14.00,2013-02-18 21:41:00,
2013-02-18 13:43:00,45.6,32.1,29.88,NNW,331,4.0,6.0,59,0.00,,---,0.00,VWS V14.00,2013-02-18 21:43:00,
2013-02-18 13:44:00,45.6,32.1,29.88,NNW,331,2.0,6.0,59,0.00,,---,0.00,VWS V14.00,2013-02-18 21:44:00,
2013-02-18 13:46:00,45.6,32.1,29.88,NNW,331,1.0,6.0,59,0.00,,---,0.00,VWS V14.00,2013-02-18 21:46:00,
2013-02-18 13:49:00,45.7,32.6,29.88,NNW,331,2.0,6.0,60,0.00,,---,0.00,VWS V14.00,2013-02-18 21:49:00,
2013-02-18 13:51:00,45.9,32.8,29.88,NNW,331,2.0,6.0,60,0.00,,---,0.00,VWS V14.00,2013-02-18 21:51:00,
2013-02-18 13:54:00,46.0,32.9,29.88,NNW,331,2.0,6.0,60,0.00,,---,0.00,VWS V14.00,2013-02-18 21:54:00,
2013-02-18 13:57:00,46.2,32.7,29.88,NNW,331,0.0,6.0,59,0.00,,---,0.00,VWS V14.00,2013-02-18 21:57:00,
2013-02-18 13:59:00,46.1,32.6,29.88,NNW,331,1.0,6.0,59,0.00,,---,0.00,VWS V14.00,2013-02-18 21:59:00,
2013-02-18 14:00:00,45.9,32.0,29.87,NNW,331,0.0,4.0,58,0.00,,---,0.00,VWS V14.00,2013-02-18 22:00:00,
2013-02-18 14:02:00,46.2,32.7,29.88,NNW,331,0.0,6.0,59,0.00,,---,0.00,VWS V14.00,2013-02-18 22:02:00,
2013-02-18 14:04:00,46.1,32.2,29.88,NNW,331,0.0,4.0,58,0.00,,---,0.00,VWS V14.00,2013-02-18 22:04:00,
2013-02-18 14:07:00,46.0,32.1,29.88,NNW,331,3.0,4.0,58,0.00,,---,0.00,VWS V14.00,2013-02-18 22:07:00,
2013-02-18 14:09:00,46.1,32.2,29.88,NNW,331,2.0,4.0,58,0.00,,---,0.00,VWS V14.00,2013-02-18 22:09:00,
2013-02-18 14:10:00,46.1,32.2,29.88,NNW,331,2.0,4.0,58,0.00,,---,0.00,VWS V14.00,2013-02-18 22:10:00,
2013-02-18 14:12:00,46.2,32.2,29.87,NNW,331,0.0,4.0,58,0.00,,---,0.00,VWS V14.00,2013-02-18 22:12:00,
2013-02-18 14:15:00,46.3,31.9,29.87,NNW,331,1.0,4.0,57,0.00,,---,0.00,VWS V14.00,2013-02-18 22:15:00,
2013-02-18 14:17:00,46.2,31.4,29.87,NNW,331,0.0,4.0,56,0.00,,---,0.00,VWS V14.00,2013-02-18 22:17:00,
2013-02-18 14:20:00,46.2,31.8,29.87,NNW,331,0.0,4.0,57,0.00,,---,0.00,VWS V14.00,2013-02-18 22:20:00,
2013-02-18 14:21:00,46.3,32.3,29.87,NNW,331,1.0,4.0,58,0.00,,---,0.00,VWS V14.00,2013-02-18 22:21:00,
2013-02-18 14:23:00,46.3,31.9,29.87,NNW,331,0.0,4.0,57,0.00,,---,0.00,VWS V14.00,2013-02-18 22:23:00,
2013-02-18 14:25:00,46.3,31.9,29.87,NNW,331,0.0,4.0,57,0.00,,---,0.00,VWS V14.00,2013-02-18 22:25:00,
2013-02-18 14:26:00,46.4,32.0,29.87,NNW,331,0.0,4.0,57,0.00,,---,0.00,VWS V14.00,2013-02-18 22:26:00,
2013-02-18 14:28:00,46.4,32.0,29.87,NNW,331,2.0,4.0,57,0.00,,---,0.00,VWS V14.00,2013-02-18 22:28:00,
2013-02-18 14:30:00,45.4,31.9,29.86,NNW,327,0.0,6.0,59,0.00,,---,0.00,VWS V14.00,2013-02-18 22:30:00,
2013-02-18 14:31:00,46.4,32.0,29.87,NNW,331,0.0,4.0,57,0.00,,---,0.00,VWS V14.00,2013-02-18 22:31:00,
2013-02-18 14:33:00,46.3,32.3,29.87,NNW,331,3.0,4.0,58,0.00,,---,0.00,VWS V14.00,2013-02-18 22:33:00,
2013-02-18 14:36:00,46.2,32.2,29.87,NNW,331,0.0,4.0,58,0.00,,---,0.00,VWS V14.00,2013-02-18 22:36:00,
2013-02-18 14:39:00,46.1,32.2,29.87,NNW,331,0.0,4.0,58,0.00,,---,0.00,VWS V14.00,2013-02-18 22:39:00,
2013-02-18 14:41:00,46.0,32.1,29.87,NNW,331,0.0,4.0,58,0.00,,---,0.00,VWS V14.00,2013-02-18 22:41:00,
2013-02-18 14:44:00,46.0,32.5,29.87,NNW,331,0.0,4.0,59,0.00,,---,0.00,VWS V14.00,2013-02-18 22:44:00,
2013-02-18 14:46:00,45.9,32.0,29.87,NNW,331,0.0,4.0,58,0.00,,---,0.00,VWS V14.00,2013-02-18 22:46:00,
2013-02-18 14:49:00,45.8,31.9,29.87,NNW,331,0.0,4.0,58,0.00,,---,0.00,VWS V14.00,2013-02-18 22:49:00,
2013-02-18 14:51:00,45.8,32.3,29.87,NNW,331,0.0,4.0,59,0.00,,---,0.00,VWS V14.00,2013-02-18 22:51:00,
2013-02-18 14:52:00,45.8,32.3,29.87,NNW,331,0.0,4.0,59,0.00,,---,0.00,VWS V14.00,2013-02-18 22:52:00,
2013-02-18 14:54:00,45.9,32.4,29.87,NNW,331,1.0,4.0,59,0.00,,---,0.00,VWS V14.00,2013-02-18 22:54:00,
2013-02-18 14:57:00,45.9,32.0,29.87,NNW,331,4.0,4.0,58,0.00,,---,0.00,VWS V14.00,2013-02-18 22:57:00,
2013-02-18 14:59:00,45.9,32.0,29.87,NNW,331,0.0,4.0,58,0.00,,---,0.00,VWS V14.00,2013-02-18 22:59:00,
2013-02-18 15:00:00,44.9,31.5,29.87,NNW,327,0.0,4.0,59,0.00,,---,0.00,VWS V14.00,2013-02-18 23:00:00,
2013-02-18 15:02:00,45.9,32.0,29.87,NNW,331,0.0,0.0,58,0.00,,---,0.00,VWS V14.00,2013-02-18 23:02:00,
2013-02-18 15:03:00,45.9,32.0,29.87,NNW,331,0.0,0.0,58,0.00,,---,0.00,VWS V14.00,2013-02-18 23:03:00,
2013-02-18 15:04:00,45.8,31.9,29.87,NNW,331,3.0,3.0,58,0.00,,---,0.00,VWS V14.00,2013-02-18 23:04:00,
2013-02-18 15:08:00,45.7,32.2,29.87,NNW,329,4.0,6.0,59,0.00,,---,0.00,VWS V14.00,2013-02-18 23:08:00,
2013-02-18 15:09:00,45.6,31.7,29.87,NNW,329,0.0,6.0,58,0.00,,---,0.00,VWS V14.00,2013-02-18 23:09:00,
2013-02-18 15:13:00,45.4,31.9,29.87,NNW,328,0.0,6.0,59,0.00,,---,0.00,VWS V14.00,2013-02-18 23:13:00,
2013-02-18 15:14:00,45.4,31.9,29.87,NNW,328,3.0,6.0,59,0.00,,---,0.00,VWS V14.00,2013-02-18 23:14:00,
2013-02-18 15:18:00,45.3,31.8,29.87,NNW,327,1.0,6.0,59,0.00,,---,0.00,VWS V14.00,2013-02-18 23:18:00,
2013-02-18 15:19:00,45.3,31.8,29.87,NNW,327,0.0,6.0,59,0.00,,---,0.00,VWS V14.00,2013-02-18 23:19:00,
2013-02-18 15:23:00,45.4,31.9,29.87,NNW,327,0.0,6.0,59,0.00,,---,0.00,VWS V14.00,2013-02-18 23:23:00,
2013-02-18 15:24:00,45.4,31.9,29.87,NNW,327,1.0,6.0,59,0.00,,---,0.00,VWS V14.00,2013-02-18 23:24:00,
2013-02-18 15:25:00,45.4,31.9,29.87,NNW,327,2.0,6.0,59,0.00,,---,0.00,VWS V14.00,2013-02-18 23:25:00,
2013-02-18 15:29:00,45.4,31.9,29.87,NNW,327,2.0,6.0,59,0.00,,---,0.00,VWS V14.00,2013-02-18 23:29:00,
2013-02-18 15:30:00,45.4,31.9,29.86,NNW,327,1.0,6.0,59,0.00,,---,0.00,VWS V14.00,2013-02-18 23:30:00,
2013-02-18 15:34:00,45.3,31.8,29.86,NNW,327,0.0,3.0,59,0.00,,---,0.00,VWS V14.00,2013-02-18 23:34:00,
2013-02-18 15:35:00,45.3,31.8,29.86,NNW,327,0.0,3.0,59,0.00,,---,0.00,VWS V14.00,2013-02-18 23:35:00,
2013-02-18 15:39:00,45.2,31.7,29.86,NNW,327,0.0,3.0,59,0.00,,---,0.00,VWS V14.00,2013-02-18 23:39:00,
2013-02-18 15:40:00,45.1,32.1,29.87,NNW,327,3.0,4.0,60,0.00,,---,0.00,VWS V14.00,2013-02-18 23:40:00,
2013-02-18 15:44:00,45.0,32.0,29.87,NNW,327,1.0,4.0,60,0.00,,---,0.00,VWS V14.00,2013-02-18 23:44:00,
2013-02-18 15:45:00,45.0,32.0,29.87,NNW,327,0.0,4.0,60,0.00,,---,0.00,VWS V14.00,2013-02-18 23:45:00,
2013-02-18 15:46:00,45.0,32.0,29.87,NNW,327,0.0,4.0,60,0.00,,---,0.00,VWS V14.00,2013-02-18 23:46:00,
2013-02-18 15:49:00,45.0,32.0,29.87,NNW,327,2.0,4.0,60,0.00,,---,0.00,VWS V14.00,2013-02-18 23:49:00,
2013-02-18 15:50:00,45.0,32.0,29.87,NNW,327,1.0,4.0,60,0.00,,---,0.00,VWS V14.00,2013-02-18 23:50:00,
2013-02-18 15:51:00,45.0,32.0,29.87,NNW,327,1.0,4.0,60,0.00,,---,0.00,VWS V14.00,2013-02-18 23:51:00,
2013-02-18 15:54:00,45.0,32.0,29.86,NNW,327,0.0,4.0,60,0.00,,---,0.00,VWS V14.00,2013-02-18 23:54:00,
2013-02-18 15:55:00,45.0,32.0,29.86,NNW,327,0.0,4.0,60,0.00,,---,0.00,VWS V14.00,2013-02-18 23:55:00,
2013-02-18 15:56:00,44.9,31.5,29.86,NNW,327,0.0,4.0,59,0.00,,---,0.00,VWS V14.00,2013-02-18 23:56:00,
2013-02-18 15:59:00,44.9,31.9,29.86,NNW,327,0.0,4.0,60,0.00,,---,0.00,VWS V14.00,2013-02-18 23:59:00,
2013-02-18 16:00:00,43.6,31.5,29.85,NNW,327,0.0,2.0,62,0.00,,---,0.00,VWS V14.00,2013-02-19 00:00:00,
2013-02-18 16:01:00,44.9,31.9,29.86,NNW,327,0.0,4.0,60,0.00,,---,0.00,VWS V14.00,2013-02-19 00:01:00,
2013-02-18 16:04:00,44.9,31.5,29.87,NNW,327,1.0,2.0,59,0.00,,---,0.00,VWS V14.00,2013-02-19 00:04:00,
2013-02-18 16:06:00,44.9,31.5,29.87,NNW,327,0.0,2.0,59,0.00,,---,0.00,VWS V14.00,2013-02-19 00:06:00,
2013-02-18 16:10:00,44.7,31.3,29.87,NNW,327,0.0,4.0,59,0.00,,---,0.00,VWS V14.00,2013-02-19 00:10:00,
2013-02-18 16:11:00,44.7,31.3,29.87,NNW,327,2.0,4.0,59,0.00,,---,0.00,VWS V14.00,2013-02-19 00:11:00,
2013-02-18 16:12:00,44.7,31.3,29.87,NNW,327,1.0,4.0,59,0.00,,---,0.00,VWS V14.00,2013-02-19 00:12:00,
2013-02-18 16:15:00,44.6,31.6,29.86,NNW,327,0.0,4.0,60,0.00,,---,0.00,VWS V14.00,2013-02-19 00:15:00,
2013-02-18 16:16:00,44.6,31.2,29.86,NNW,327,0.0,4.0,59,0.00,,---,0.00,VWS V14.00,2013-02-19 00:16:00,
2013-02-18 16:17:00,44.6,31.2,29.86,NNW,327,0.0,4.0,59,0.00,,---,0.00,VWS V14.00,2013-02-19 00:17:00,
2013-02-18 16:20:00,44.5,31.5,29.86,NNW,327,0.0,4.0,60,0.00,,---,0.00,VWS V14.00,2013-02-19 00:20:00,
2013-02-18 16:22:00,44.5,31.1,29.86,NNW,327,0.0,4.0,59,0.00,,---,0.00,VWS V14.00,2013-02-19 00:22:00,
2013-02-18 16:25:00,44.5,31.5,29.86,NNW,327,0.0,4.0,60,0.00,,---,0.00,VWS V14.00,2013-02-19 00:25:00,
2013-02-18 16:27:00,44.4,31.4,29.86,NNW,327,0.0,4.0,60,0.00,,---,0.00,VWS V14.00,2013-02-19 00:27:00,
2013-02-18 16:28:00,44.4,31.4,29.86,NNW,327,0.0,4.0,60,0.00,,---,0.00,VWS V14.00,2013-02-19 00:28:00,
2013-02-18 16:30:00,44.3,31.3,29.86,NNW,327,0.0,4.0,60,0.00,,---,0.00,VWS V14.00,2013-02-19 00:30:00,
2013-02-18 16:32:00,44.3,31.3,29.86,NNW,327,1.0,4.0,60,0.00,,---,0.00,VWS V14.00,2013-02-19 00:32:00,
2013-02-18 16:33:00,44.3,31.3,29.86,NNW,327,0.0,2.0,60,0.00,,---,0.00,VWS V14.00,2013-02-19 00:33:00,
2013-02-18 16:35:00,44.2,31.2,29.86,NNW,327,1.0,2.0,60,0.00,,---,0.00,VWS V14.00,2013-02-19 00:35:00,
2013-02-18 16:37:00,44.2,31.2,29.86,NNW,327,0.0,2.0,60,0.00,,---,0.00,VWS V14.00,2013-02-19 00:37:00,
2013-02-18 16:38:00,44.1,31.5,29.86,NNW,327,0.0,2.0,61,0.00,,---,0.00,VWS V14.00,2013-02-19 00:38:00,
2013-02-18 16:40:00,44.1,31.5,29.86,NNW,327,0.0,2.0,61,0.00,,---,0.00,VWS V14.00,2013-02-19 00:40:00,
2013-02-18 16:42:00,44.0,31.4,29.86,NNW,327,0.0,2.0,61,0.00,,---,0.00,VWS V14.00,2013-02-19 00:42:00,
2013-02-18 16:43:00,44.0,31.4,29.86,NNW,327,0.0,2.0,61,0.00,,---,0.00,VWS V14.00,2013-02-19 00:43:00,
2013-02-18 16:45:00,43.9,31.3,29.86,NNW,327,0.0,2.0,61,0.00,,---,0.00,VWS V14.00,2013-02-19 00:45:00,
2013-02-18 16:47:00,43.8,31.2,29.85,NNW,327,0.0,2.0,61,0.00,,---,0.00,VWS V14.00,2013-02-19 00:47:00,
2013-02-18 16:48:00,43.8,31.2,29.85,NNW,327,0.0,2.0,61,0.00,,---,0.00,VWS V14.00,2013-02-19 00:48:00,
2013-02-18 16:50:00,43.8,31.2,29.85,NNW,327,0.0,2.0,61,0.00,,---,0.00,VWS V14.00,2013-02-19 00:50:00,
2013-02-18 16:53:00,43.7,31.1,29.85,NNW,327,0.0,2.0,61,0.00,,---,0.00,VWS V14.00,2013-02-19 00:53:00,
2013-02-18 16:54:00,43.7,31.1,29.85,NNW,327,0.0,2.0,61,0.00,,---,0.00,VWS V14.00,2013-02-19 00:54:00,
2013-02-18 16:55:00,43.7,31.1,29.85,NNW,327,0.0,2.0,61,0.00,,---,0.00,VWS V14.00,2013-02-19 00:55:00,
2013-02-18 16:58:00,43.7,31.1,29.85,NNW,327,0.0,2.0,61,0.00,,---,0.00,VWS V14.00,2013-02-19 00:58:00,
2013-02-18 16:59:00,43.7,31.1,29.85,NNW,327,0.0,2.0,61,0.00,,---,0.00,VWS V14.00,2013-02-19 00:59:00,
2013-02-18 17:00:00,41.3,30.8,29.84,NNW,327,0.0,0.0,66,0.00,,---,0.00,VWS V14.00,2013-02-19 01:00:00,
2013-02-18 17:01:00,43.6,31.0,29.85,NNW,327,0.0,2.0,61,0.00,,---,0.00,VWS V14.00,2013-02-19 01:01:00,
2013-02-18 17:03:00,43.6,31.5,29.85,NNW,327,0.0,0.0,62,0.00,,---,0.00,VWS V14.00,2013-02-19 01:03:00,
2013-02-18 17:04:00,43.6,31.5,29.85,NNW,327,0.0,0.0,62,0.00,,---,0.00,VWS V14.00,2013-02-19 01:04:00,
2013-02-18 17:06:00,43.6,31.5,29.85,NNW,327,0.0,0.0,62,0.00,,---,0.00,VWS V14.00,2013-02-19 01:06:00,
2013-02-18 17:08:00,43.5,31.4,29.85,NNW,327,0.0,0.0,62,0.00,,---,0.00,VWS V14.00,2013-02-19 01:08:00,
2013-02-18 17:10:00,43.4,31.3,29.85,NNW,327,0.0,0.0,62,0.00,,---,0.00,VWS V14.00,2013-02-19 01:10:00,
2013-02-18 17:11:00,43.4,30.9,29.85,NNW,327,0.0,0.0,61,0.00,,---,0.00,VWS V14.00,2013-02-19 01:11:00,
2013-02-18 17:13:00,43.3,31.2,29.84,NNW,327,0.0,1.0,62,0.00,,---,0.00,VWS V14.00,2013-02-19 01:13:00,
2013-02-18 17:16:00,43.3,31.2,29.84,NNW,327,0.0,1.0,62,0.00,,---,0.00,VWS V14.00,2013-02-19 01:16:00,
2013-02-18 17:19:00,43.2,31.1,29.85,NNW,327,0.0,1.0,62,0.00,,---,0.00,VWS V14.00,2013-02-19 01:19:00,
2013-02-18 17:21:00,43.1,31.0,29.85,NNW,327,0.0,1.0,62,0.00,,---,0.00,VWS V14.00,2013-02-19 01:21:00,
2013-02-18 17:24:00,42.9,31.2,29.85,NNW,327,0.0,1.0,63,0.00,,---,0.00,VWS V14.00,2013-02-19 01:24:00,
2013-02-18 17:26:00,42.8,31.1,29.84,NNW,327,0.0,1.0,63,0.00,,---,0.00,VWS V14.00,2013-02-19 01:26:00,
2013-02-18 17:30:00,42.5,30.8,29.85,NNW,327,0.0,1.0,63,0.00,,---,0.00,VWS V14.00,2013-02-19 01:30:00,
2013-02-18 17:31:00,42.5,30.8,29.85,NNW,327,0.0,1.0,63,0.00,,---,0.00,VWS V14.00,2013-02-19 01:31:00,
2013-02-18 17:35:00,42.4,31.1,29.84,NNW,327,0.0,0.0,64,0.00,,---,0.00,VWS V14.00,2013-02-19 01:35:00,
2013-02-18 17:36:00,42.4,31.1,29.84,NNW,327,0.0,0.0,64,0.00,,---,0.00,VWS V14.00,2013-02-19 01:36:00,
2013-02-18 17:37:00,42.3,31.0,29.84,NNW,327,0.0,0.0,64,0.00,,---,0.00,VWS V14.00,2013-02-19 01:37:00,
2013-02-18 17:41:00,42.2,30.5,29.84,NNW,327,0.0,0.0,63,0.00,,---,0.00,VWS V14.00,2013-02-19 01:41:00,
2013-02-18 17:42:00,42.2,30.5,29.84,NNW,327,0.0,0.0,63,0.00,,---,0.00,VWS V14.00,2013-02-19 01:42:00,
2013-02-18 17:46:00,42.0,30.7,29.84,NNW,327,0.0,0.0,64,0.00,,---,0.00,VWS V14.00,2013-02-19 01:46:00,
2013-02-18 17:47:00,42.0,30.7,29.84,NNW,327,0.0,0.0,64,0.00,,---,0.00,VWS V14.00,2013-02-19 01:47:00,
2013-02-18 17:52:00,41.8,30.5,29.84,NNW,327,0.0,0.0,64,0.00,,---,0.00,VWS V14.00,2013-02-19 01:52:00,
2013-02-18 17:57:00,41.5,30.6,29.84,NNW,327,0.0,0.0,65,0.00,,---,0.00,VWS V14.00,2013-02-19 01:57:00,
2013-02-18 17:58:00,41.5,30.6,29.84,NNW,327,0.0,0.0,65,0.00,,---,0.00,VWS V14.00,2013-02-19 01:58:00,
2013-02-18 18:00:00,38.7,31.1,29.84,NNW,328,1.0,5.0,74,0.00,,---,0.00,VWS V14.00,2013-02-19 02:00:00,
2013-02-18 18:02:00,41.3,30.8,29.84,NNW,327,0.0,0.0,66,0.00,,---,0.00,VWS V14.00,2013-02-19 02:02:00,
2013-02-18 18:03:00,41.3,31.2,29.84,NNW,327,0.0,0.0,67,0.00,,---,0.00,VWS V14.00,2013-02-19 02:03:00,
2013-02-18 18:07:00,41.2,30.7,29.85,NNW,327,0.0,0.0,66,0.00,,---,0.00,VWS V14.00,2013-02-19 02:07:00,
2013-02-18 18:08:00,41.1,30.6,29.84,NNW,327,0.0,0.0,66,0.00,,---,0.00,VWS V14.00,2013-02-19 02:08:00,
2013-02-18 18:12:00,40.9,30.8,29.85,NNW,327,0.0,1.0,67,0.00,,---,0.00,VWS V14.00,2013-02-19 02:12:00,
2013-02-18 18:14:00,40.8,30.7,29.84,NNW,327,0.0,1.0,67,0.00,,---,0.00,VWS V14.00,2013-02-19 02:14:00,
2013-02-18 18:17:00,40.7,30.6,29.84,NNW,327,0.0,1.0,67,0.00,,---,0.00,VWS V14.00,2013-02-19 02:17:00,
2013-02-18 18:18:00,40.7,30.6,29.84,NNW,327,0.0,1.0,67,0.00,,---,0.00,VWS V14.00,2013-02-19 02:18:00,
2013-02-18 18:20:00,40.6,30.5,29.84,NNW,327,0.0,1.0,67,0.00,,---,0.00,VWS V14.00,2013-02-19 02:20:00,
2013-02-18 18:23:00,40.6,30.5,29.84,NNW,327,0.0,1.0,67,0.00,,---,0.00,VWS V14.00,2013-02-19 02:23:00,
2013-02-18 18:24:00,40.6,30.5,29.84,NNW,327,0.0,1.0,67,0.00,,---,0.00,VWS V14.00,2013-02-19 02:24:00,
2013-02-18 18:25:00,40.5,30.8,29.84,NNW,327,0.0,1.0,68,0.00,,---,0.00,VWS V14.00,2013-02-19 02:25:00,
2013-02-18 18:28:00,40.5,30.8,29.84,NNW,327,0.0,1.0,68,0.00,,---,0.00,VWS V14.00,2013-02-19 02:28:00,
2013-02-18 18:29:00,40.5,30.8,29.84,NNW,327,0.0,1.0,68,0.00,,---,0.00,VWS V14.00,2013-02-19 02:29:00,
2013-02-18 18:30:00,40.4,30.7,29.84,NNW,327,0.0,1.0,68,0.00,,---,0.00,VWS V14.00,2013-02-19 02:30:00,
2013-02-18 18:33:00,40.3,30.6,29.84,NNW,327,2.0,3.0,68,0.00,,---,0.00,VWS V14.00,2013-02-19 02:33:00,
2013-02-18 18:34:00,40.2,30.9,29.84,NNW,327,1.0,3.0,69,0.00,,---,0.00,VWS V14.00,2013-02-19 02:34:00,
2013-02-18 18:35:00,40.2,30.9,29.84,NNW,327,0.0,3.0,69,0.00,,---,0.00,VWS V14.00,2013-02-19 02:35:00,
2013-02-18 18:38:00,40.0,30.7,29.84,NNW,327,1.0,3.0,69,0.00,,---,0.00,VWS V14.00,2013-02-19 02:38:00,
2013-02-18 18:40:00,40.0,30.7,29.84,NNW,327,2.0,3.0,69,0.00,,---,0.00,VWS V14.00,2013-02-19 02:40:00,
2013-02-18 18:41:00,39.8,30.8,29.84,NNW,327,2.0,3.0,70,0.00,,---,0.00,VWS V14.00,2013-02-19 02:41:00,
2013-02-18 18:43:00,39.7,30.7,29.84,NNW,327,3.0,3.0,70,0.00,,---,0.00,VWS V14.00,2013-02-19 02:43:00,
2013-02-18 18:45:00,39.6,30.6,29.84,NNW,327,2.0,4.0,70,0.00,,---,0.00,VWS V14.00,2013-02-19 02:45:00,
2013-02-18 18:47:00,39.4,30.4,29.84,NNW,327,3.0,4.0,70,0.00,,---,0.00,VWS V14.00,2013-02-19 02:47:00,
2013-02-18 18:48:00,39.3,30.7,29.84,NNW,327,3.0,5.0,71,0.00,,---,0.00,VWS V14.00,2013-02-19 02:48:00,
2013-02-18 18:50:00,39.2,30.6,29.84,NNW,327,3.0,5.0,71,0.00,,---,0.00,VWS V14.00,2013-02-19 02:50:00,
2013-02-18 18:52:00,39.0,30.8,29.84,NNW,327,2.0,5.0,72,0.00,,---,0.00,VWS V14.00,2013-02-19 02:52:00,
2013-02-18 18:53:00,38.9,30.7,29.84,NNW,327,3.0,5.0,72,0.00,,---,0.00,VWS V14.00,2013-02-19 02:53:00,
2013-02-18 18:55:00,38.8,30.9,29.84,NNW,327,1.0,5.0,73,0.00,,---,0.00,VWS V14.00,2013-02-19 02:55:00,
2013-02-18 18:57:00,38.8,30.9,29.84,NNW,327,3.0,5.0,73,0.00,,---,0.00,VWS V14.00,2013-02-19 02:57:00,
2013-02-18 18:58:00,38.7,30.8,29.84,NNW,328,4.0,5.0,73,0.00,,---,0.00,VWS V14.00,2013-02-19 02:58:00,
2013-02-18 19:00:00,38.7,31.1,29.84,NNW,328,3.0,5.0,74,0.00,,---,0.00,VWS V14.00,2013-02-19 03:00:00,
2013-02-18 19:02:00,38.7,31.1,29.84,NNW,328,1.0,5.0,74,0.00,,---,0.00,VWS V14.00,2013-02-19 03:02:00,
2013-02-18 19:04:00,38.7,31.1,29.84,NNW,328,2.0,4.0,74,0.00,,---,0.00,VWS V14.00,2013-02-19 03:04:00,
2013-02-18 19:06:00,38.8,31.6,29.84,NNW,328,3.0,4.0,75,0.00,,---,0.00,VWS V14.00,2013-02-19 03:06:00,
2013-02-18 19:08:00,38.8,31.6,29.84,NNW,329,3.0,4.0,75,0.00,,---,0.00,VWS V14.00,2013-02-19 03:08:00,
2013-02-18 19:10:00,38.8,31.6,29.84,NNW,329,0.0,4.0,75,0.00,,---,0.00,VWS V14.00,2013-02-19 03:10:00,
2013-02-18 19:11:00,38.8,31.6,29.84,NNW,329,1.0,4.0,75,0.00,,---,0.00,VWS V14.00,2013-02-19 03:11:00,
2013-02-18 19:15:00,38.8,31.6,29.83,NNW,329,1.0,4.0,75,0.00,,---,0.00,VWS V14.00,2013-02-19 03:15:00,
2013-02-18 19:16:00,38.8,31.6,29.83,NNW,329,0.0,4.0,75,0.00,,---,0.00,VWS V14.00,2013-02-19 03:16:00,
2013-02-18 19:20:00,38.9,31.7,29.83,NNW,329,0.0,4.0,75,0.00,,---,0.00,VWS V14.00,2013-02-19 03:20:00,
2013-02-18 19:21:00,38.9,31.7,29.83,NNW,329,0.0,4.0,75,0.00,,---,0.00,VWS V14.00,2013-02-19 03:21:00,
2013-02-18 19:25:00,38.9,31.7,29.83,NNW,329,0.0,4.0,75,0.00,,---,0.00,VWS V14.00,2013-02-19 03:25:00,
2013-02-18 19:27:00,38.8,31.6,29.83,NNW,329,2.0,4.0,75,0.00,,---,0.00,VWS V14.00,2013-02-19 03:27:00,
2013-02-18 19:30:00,38.8,31.6,29.83,NNW,329,1.0,4.0,75,0.00,,---,0.00,VWS V14.00,2013-02-19 03:30:00,
2013-02-18 19:31:00,38.8,31.6,29.83,NNW,329,2.0,4.0,75,0.00,,---,0.00,VWS V14.00,2013-02-19 03:31:00,
2013-02-18 19:32:00,38.8,31.6,29.83,NNW,329,3.0,4.0,75,0.00,,---,0.00,VWS V14.00,2013-02-19 03:32:00,
2013-02-18 19:36:00,38.8,31.6,29.83,NNW,329,0.0,2.0,75,0.00,,---,0.00,VWS V14.00,2013-02-19 03:36:00,
2013-02-18 19:37:00,38.8,31.6,29.83,NNW,329,0.0,2.0,75,0.00,,---,0.00,VWS V14.00,2013-02-19 03:37:00,
2013-02-18 19:41:00,38.8,31.6,29.83,NNW,329,0.0,2.0,75,0.00,,---,0.00,VWS V14.00,2013-02-19 03:41:00,
2013-02-18 19:42:00,38.8,31.6,29.83,NNW,329,0.0,2.0,75,0.00,,---,0.00,VWS V14.00,2013-02-19 03:42:00,
2013-02-18 19:46:00,38.8,31.6,29.82,NNW,329,0.0,2.0,75,0.00,,---,0.00,VWS V14.00,2013-02-19 03:46:00,
2013-02-18 19:47:00,38.8,31.6,29.82,NNW,329,0.0,2.0,75,0.00,,---,0.00,VWS V14.00,2013-02-19 03:47:00,
2013-02-18 19:48:00,38.8,31.6,29.82,NNW,329,0.0,2.0,75,0.00,,---,0.00,VWS V14.00,2013-02-19 03:48:00,
2013-02-18 19:51:00,38.8,31.6,29.82,NNW,329,1.0,2.0,75,0.00,,---,0.00,VWS V14.00,2013-02-19 03:51:00,
2013-02-18 19:52:00,38.8,31.6,29.82,NNW,329,1.0,2.0,75,0.00,,---,0.00,VWS V14.00,2013-02-19 03:52:00,
2013-02-18 19:53:00,38.7,31.5,29.82,NNW,329,1.0,2.0,75,0.00,,---,0.00,VWS V14.00,2013-02-19 03:53:00,
2013-02-18 19:56:00,38.7,31.5,29.82,NNW,329,0.0,2.0,75,0.00,,---,0.00,VWS V14.00,2013-02-19 03:56:00,
2013-02-18 19:58:00,38.6,31.4,29.82,NNW,329,1.0,2.0,75,0.00,,---,0.00,VWS V14.00,2013-02-19 03:58:00,
2013-02-18 19:59:00,38.6,31.7,29.82,NNW,329,0.0,2.0,76,0.00,,---,0.00,VWS V14.00,2013-02-19 03:59:00,
2013-02-18 20:00:00,37.3,31.1,29.81,NNW,331,2.0,4.0,78,0.00,,---,0.00,VWS V14.00,2013-02-19 04:00:00,
2013-02-18 20:01:00,38.5,31.3,29.82,NNW,329,0.0,2.0,75,0.00,,---,0.00,VWS V14.00,2013-02-19 04:01:00,
2013-02-18 20:03:00,38.5,31.3,29.82,NNW,329,0.0,0.0,75,0.00,,---,0.00,VWS V14.00,2013-02-19 04:03:00,
2013-02-18 20:04:00,38.5,31.3,29.82,NNW,329,0.0,0.0,75,0.00,,---,0.00,VWS V14.00,2013-02-19 04:04:00,
2013-02-18 20:07:00,38.5,31.3,29.82,NNW,329,0.0,1.0,75,0.00,,---,0.00,VWS V14.00,2013-02-19 04:07:00,
2013-02-18 20:08:00,38.4,31.2,29.82,NNW,329,0.0,1.0,75,0.00,,---,0.00,VWS V14.00,2013-02-19 04:08:00,
2013-02-18 20:09:00,38.5,31.3,29.82,NNW,329,2.0,2.0,75,0.00,,---,0.00,VWS V14.00,2013-02-19 04:09:00,
2013-02-18 20:12:00,38.4,31.2,29.82,NNW,329,0.0,2.0,75,0.00,,---,0.00,VWS V14.00,2013-02-19 04:12:00,
2013-02-18 20:13:00,38.4,31.2,29.82,NNW,329,0.0,2.0,75,0.00,,---,0.00,VWS V14.00,2013-02-19 04:13:00,
2013-02-18 20:14:00,38.4,31.2,29.82,NNW,329,0.0,2.0,75,0.00,,---,0.00,VWS V14.00,2013-02-19 04:14:00,
2013-02-18 20:17:00,38.3,31.4,29.82,NNW,329,0.0,2.0,76,0.00,,---,0.00,VWS V14.00,2013-02-19 04:17:00,
2013-02-18 20:19:00,38.3,31.4,29.82,NNW,329,0.0,2.0,76,0.00,,---,0.00,VWS V14.00,2013-02-19 04:19:00,
2013-02-18 20:22:00,38.1,31.2,29.82,NNW,329,0.0,2.0,76,0.00,,---,0.00,VWS V14.00,2013-02-19 04:22:00,
2013-02-18 20:24:00,38.1,31.2,29.82,NNW,329,0.0,2.0,76,0.00,,---,0.00,VWS V14.00,2013-02-19 04:24:00,
2013-02-18 20:25:00,38.0,31.1,29.82,NNW,329,0.0,2.0,76,0.00,,---,0.00,VWS V14.00,2013-02-19 04:25:00,
2013-02-18 20:27:00,37.9,31.0,29.82,NNW,329,0.0,2.0,76,0.00,,---,0.00,VWS V14.00,2013-02-19 04:27:00,
2013-02-18 20:29:00,37.9,31.0,29.82,NNW,329,0.0,2.0,76,0.00,,---,0.00,VWS V14.00,2013-02-19 04:29:00,
2013-02-18 20:30:00,37.9,31.0,29.82,NNW,329,0.0,2.0,76,0.00,,---,0.00,VWS V14.00,2013-02-19 04:30:00,
2013-02-18 20:32:00,37.8,30.9,29.82,NNW,329,0.0,0.0,76,0.00,,---,0.00,VWS V14.00,2013-02-19 04:32:00,
2013-02-18 20:34:00,37.8,31.2,29.82,NNW,329,0.0,3.0,77,0.00,,---,0.00,VWS V14.00,2013-02-19 04:34:00,
2013-02-18 20:35:00,37.8,31.2,29.82,NNW,329,0.0,3.0,77,0.00,,---,0.00,VWS V14.00,2013-02-19 04:35:00,
2013-02-18 20:38:00,37.9,31.4,29.81,NNW,329,0.0,3.0,77,0.00,,---,0.00,VWS V14.00,2013-02-19 04:38:00,
2013-02-18 20:39:00,37.8,30.9,29.81,NNW,329,1.0,3.0,76,0.00,,---,0.00,VWS V14.00,2013-02-19 04:39:00,
2013-02-18 20:40:00,37.9,31.4,29.82,NNW,329,2.0,4.0,77,0.00,,---,0.00,VWS V14.00,2013-02-19 04:40:00,
2013-02-18 20:43:00,37.9,31.4,29.81,NNW,329,0.0,4.0,77,0.00,,---,0.00,VWS V14.00,2013-02-19 04:43:00,
2013-02-18 20:44:00,37.8,31.2,29.81,NNW,329,2.0,4.0,77,0.00,,---,0.00,VWS V14.00,2013-02-19 04:44:00,
2013-02-18 20:46:00,37.8,31.2,29.81,NNW,329,1.0,4.0,77,0.00,,---,0.00,VWS V14.00,2013-02-19 04:46:00,
2013-02-18 20:48:00,37.8,31.2,29.81,NNW,329,4.0,4.0,77,0.00,,---,0.00,VWS V14.00,2013-02-19 04:48:00,
2013-02-18 20:49:00,37.7,31.1,29.81,NNW,331,3.0,4.0,77,0.00,,---,0.00,VWS V14.00,2013-02-19 04:49:00,
2013-02-18 20:51:00,37.7,31.1,29.81,NNW,331,3.0,4.0,77,0.00,,---,0.00,VWS V14.00,2013-02-19 04:51:00,
2013-02-18 20:53:00,37.6,31.1,29.81,NNW,331,0.0,4.0,77,0.00,,---,0.00,VWS V14.00,2013-02-19 04:53:00,
2013-02-18 20:55:00,37.6,31.1,29.81,NNW,331,0.0,4.0,77,0.00,,---,0.00,VWS V14.00,2013-02-19 04:55:00,
2013-02-18 20:56:00,37.5,31.0,29.81,NNW,331,0.0,4.0,77,0.00,,---,0.00,VWS V14.00,2013-02-19 04:56:00,
2013-02-18 20:58:00,37.5,31.0,29.81,NNW,331,2.0,4.0,77,0.00,,---,0.00,VWS V14.00,2013-02-19 04:58:00,
2013-02-18 21:00:00,37.4,31.2,29.81,NNW,331,2.0,4.0,78,0.00,,---,0.00,VWS V14.00,2013-02-19 05:00:00,
2013-02-18 21:01:00,37.3,31.1,29.81,NNW,331,2.0,4.0,78,0.00,,---,0.00,VWS V14.00,2013-02-19 05:01:00,
2013-02-18 21:05:00,37.1,30.9,29.81,NNW,331,1.0,3.0,78,0.00,,---,0.00,VWS V14.00,2013-02-19 05:05:00,
2013-02-18 21:07:00,37.0,30.8,29.81,NNW,331,2.0,3.0,78,0.00,,---,0.00,VWS V14.00,2013-02-19 05:07:00,
2013-02-18 21:11:00,36.9,31.0,29.81,NNW,332,3.0,4.0,79,0.00,,---,0.00,VWS V14.00,2013-02-19 05:11:00,
2013-02-18 21:12:00,36.9,31.0,29.81,NNW,333,4.0,4.0,79,0.00,,---,0.00,VWS V14.00,2013-02-19 05:12:00,
2013-02-18 21:16:00,36.8,30.9,29.81,NNW,333,2.0,4.0,79,0.00,,---,0.00,VWS V14.00,2013-02-19 05:16:00,
2013-02-18 21:17:00,36.7,30.8,29.81,NNW,333,2.0,4.0,79,0.00,,---,0.00,VWS V14.00,2013-02-19 05:17:00,
2013-02-18 21:21:00,36.5,30.9,29.81,NNW,333,2.0,4.0,80,0.00,,---,0.00,VWS V14.00,2013-02-19 05:21:00,
2013-02-18 21:22:00,36.5,30.9,29.81,NNW,333,2.0,4.0,80,0.00,,---,0.00,VWS V14.00,2013-02-19 05:22:00,
2013-02-18 21:26:00,36.4,30.8,29.81,NNW,333,0.0,4.0,80,0.00,,---,0.00,VWS V14.00,2013-02-19 05:26:00,
2013-02-18 21:27:00,36.5,30.9,29.81,NNW,333,0.0,4.0,80,0.00,,---,0.00,VWS V14.00,2013-02-19 05:27:00,
2013-02-18 21:30:00,36.9,31.0,29.79,NNW,333,0.0,3.0,79,0.00,,---,0.00,VWS V14.00,2013-02-19 05:30:00,
2013-02-18 21:31:00,36.5,30.9,29.81,NNW,333,0.0,4.0,80,0.00,,---,0.00,VWS V14.00,2013-02-19 05:31:00,
2013-02-18 21:32:00,36.6,31.0,29.81,NNW,333,0.0,4.0,80,0.00,,---,0.00,VWS V14.00,2013-02-19 05:32:00,
2013-02-18 21:33:00,36.6,31.0,29.81,NNW,333,0.0,0.0,80,0.00,,---,0.00,VWS V14.00,2013-02-19 05:33:00,
2013-02-18 21:36:00,36.6,31.0,29.81,NNW,333,0.0,1.0,80,0.00,,---,0.00,VWS V14.00,2013-02-19 05:36:00,
2013-02-18 21:37:00,36.6,31.0,29.81,NNW,333,0.0,1.0,80,0.00,,---,0.00,VWS V14.00,2013-02-19 05:37:00,
2013-02-18 21:38:00,36.6,31.0,29.81,NNW,333,0.0,1.0,80,0.00,,---,0.00,VWS V14.00,2013-02-19 05:38:00,
2013-02-18 21:41:00,36.6,31.0,29.81,NNW,333,1.0,3.0,80,0.00,,---,0.00,VWS V14.00,2013-02-19 05:41:00,
2013-02-18 21:42:00,36.7,31.1,29.81,NNW,333,0.0,3.0,80,0.00,,---,0.00,VWS V14.00,2013-02-19 05:42:00,
2013-02-18 21:44:00,36.7,31.1,29.81,NNW,333,0.0,3.0,80,0.00,,---,0.00,VWS V14.00,2013-02-19 05:44:00,
2013-02-18 21:46:00,36.7,31.1,29.81,NNW,333,0.0,3.0,80,0.00,,---,0.00,VWS V14.00,2013-02-19 05:46:00,
2013-02-18 21:47:00,36.7,31.1,29.81,NNW,333,0.0,3.0,80,0.00,,---,0.00,VWS V14.00,2013-02-19 05:47:00,
2013-02-18 21:48:00,36.7,31.1,29.81,NNW,333,0.0,3.0,80,0.00,,---,0.00,VWS V14.00,2013-02-19 05:48:00,
2013-02-18 21:49:00,36.7,30.8,29.80,NNW,333,0.0,3.0,79,0.00,,---,0.00,VWS V14.00,2013-02-19 05:49:00,
2013-02-18 21:51:00,36.7,30.8,29.80,NNW,333,0.0,3.0,79,0.00,,---,0.00,VWS V14.00,2013-02-19 05:51:00,
2013-02-18 21:52:00,36.7,30.8,29.80,NNW,333,0.0,3.0,79,0.00,,---,0.00,VWS V14.00,2013-02-19 05:52:00,
2013-02-18 21:53:00,36.7,30.8,29.80,NNW,333,0.0,3.0,79,0.00,,---,0.00,VWS V14.00,2013-02-19 05:53:00,
2013-02-18 21:54:00,36.7,30.8,29.80,NNW,333,0.0,3.0,79,0.00,,---,0.00,VWS V14.00,2013-02-19 05:54:00,
2013-02-18 21:56:00,36.7,30.8,29.80,NNW,333,0.0,3.0,79,0.00,,---,0.00,VWS V14.00,2013-02-19 05:56:00,
2013-02-18 21:58:00,36.7,30.8,29.80,NNW,333,0.0,3.0,79,0.00,,---,0.00,VWS V14.00,2013-02-19 05:58:00,
2013-02-18 21:59:00,36.7,30.8,29.80,NNW,333,0.0,3.0,79,0.00,,---,0.00,VWS V14.00,2013-02-19 05:59:00,
2013-02-18 22:00:00,35.8,30.9,29.78,NNW,333,0.0,2.0,82,0.00,,---,0.00,VWS V14.00,2013-02-19 06:00:00,
2013-02-18 22:01:00,36.7,31.1,29.80,NNW,333,0.0,3.0,80,0.00,,---,0.00,VWS V14.00,2013-02-19 06:01:00,
2013-02-18 22:03:00,36.7,31.1,29.80,NNW,333,2.0,2.0,80,0.00,,---,0.00,VWS V14.00,2013-02-19 06:03:00,
2013-02-18 22:04:00,36.7,31.1,29.80,NNW,333,0.0,3.0,80,0.00,,---,0.00,VWS V14.00,2013-02-19 06:04:00,
2013-02-18 22:06:00,36.8,31.2,29.80,NNW,333,0.0,3.0,80,0.00,,---,0.00,VWS V14.00,2013-02-19 06:06:00,
2013-02-18 22:09:00,36.8,31.2,29.80,NNW,333,0.0,3.0,80,0.00,,---,0.00,VWS V14.00,2013-02-19 06:09:00,
2013-02-18 22:11:00,36.7,31.1,29.80,NNW,333,0.0,3.0,80,0.00,,---,0.00,VWS V14.00,2013-02-19 06:11:00,
2013-02-18 22:14:00,36.7,31.1,29.80,NNW,333,0.0,3.0,80,0.00,,---,0.00,VWS V14.00,2013-02-19 06:14:00,
2013-02-18 22:17:00,36.7,31.1,29.80,NNW,333,0.0,3.0,80,0.00,,---,0.00,VWS V14.00,2013-02-19 06:17:00,
2013-02-18 22:19:00,36.7,31.1,29.80,NNW,333,0.0,3.0,80,0.00,,---,0.00,VWS V14.00,2013-02-19 06:19:00,
2013-02-18 22:20:00,36.7,31.1,29.80,NNW,333,0.0,3.0,80,0.00,,---,0.00,VWS V14.00,2013-02-19 06:20:00,
2013-02-18 22:22:00,36.7,31.1,29.80,NNW,333,0.0,3.0,80,0.00,,---,0.00,VWS V14.00,2013-02-19 06:22:00,
2013-02-18 22:24:00,36.8,31.2,29.80,NNW,333,0.0,3.0,80,0.00,,---,0.00,VWS V14.00,2013-02-19 06:24:00,
2013-02-18 22:25:00,36.8,31.2,29.80,NNW,333,0.0,3.0,80,0.00,,---,0.00,VWS V14.00,2013-02-19 06:25:00,
2013-02-18 22:27:00,36.8,31.2,29.79,NNW,333,0.0,3.0,80,0.00,,---,0.00,VWS V14.00,2013-02-19 06:27:00,
2013-02-18 22:29:00,36.8,31.2,29.79,NNW,333,0.0,3.0,80,0.00,,---,0.00,VWS V14.00,2013-02-19 06:29:00,
2013-02-18 22:30:00,36.8,31.2,29.79,NNW,333,0.0,3.0,80,0.00,,---,0.00,VWS V14.00,2013-02-19 06:30:00,
2013-02-18 22:32:00,36.9,31.0,29.79,NNW,333,0.0,0.0,79,0.00,,---,0.00,VWS V14.00,2013-02-19 06:32:00,
2013-02-18 22:35:00,36.9,31.3,29.79,NNW,333,0.0,1.0,80,0.00,,---,0.00,VWS V14.00,2013-02-19 06:35:00,
2013-02-18 22:36:00,36.9,31.3,29.79,NNW,333,2.0,2.0,80,0.00,,---,0.00,VWS V14.00,2013-02-19 06:36:00,
2013-02-18 22:38:00,36.8,31.2,29.79,NNW,333,1.0,2.0,80,0.00,,---,0.00,VWS V14.00,2013-02-19 06:38:00,
2013-02-18 22:40:00,36.6,31.0,29.79,NNW,333,1.0,2.0,80,0.00,,---,0.00,VWS V14.00,2013-02-19 06:40:00,
2013-02-18 22:41:00,36.6,31.0,29.79,NNW,333,0.0,2.0,80,0.00,,---,0.00,VWS V14.00,2013-02-19 06:41:00,
2013-02-18 22:43:00,36.3,31.0,29.79,NNW,333,0.0,2.0,81,0.00,,---,0.00,VWS V14.00,2013-02-19 06:43:00,
2013-02-18 22:45:00,36.2,30.9,29.79,NNW,333,0.0,2.0,81,0.00,,---,0.00,VWS V14.00,2013-02-19 06:45:00,
2013-02-18 22:46:00,36.1,30.8,29.79,NNW,333,0.0,2.0,81,0.00,,---,0.00,VWS V14.00,2013-02-19 06:46:00,
2013-02-18 22:49:00,35.9,31.0,29.79,NNW,333,0.0,2.0,82,0.00,,---,0.00,VWS V14.00,2013-02-19 06:49:00,
2013-02-18 22:50:00,35.9,31.0,29.79,NNW,333,0.0,2.0,82,0.00,,---,0.00,VWS V14.00,2013-02-19 06:50:00,
2013-02-18 22:51:00,35.9,30.6,29.79,NNW,333,0.0,2.0,81,0.00,,---,0.00,VWS V14.00,2013-02-19 06:51:00,
2013-02-18 22:54:00,35.7,30.8,29.78,NNW,333,0.0,2.0,82,0.00,,---,0.00,VWS V14.00,2013-02-19 06:54:00,
2013-02-18 22:55:00,35.8,30.9,29.78,NNW,333,0.0,2.0,82,0.00,,---,0.00,VWS V14.00,2013-02-19 06:55:00,
2013-02-18 22:56:00,35.8,30.9,29.78,NNW,333,0.0,2.0,82,0.00,,---,0.00,VWS V14.00,2013-02-19 06:56:00,
2013-02-18 22:57:00,35.8,30.9,29.78,NNW,333,0.0,2.0,82,0.00,,---,0.00,VWS V14.00,2013-02-19 06:57:00,
2013-02-18 23:00:00,35.8,30.9,29.78,NNW,333,0.0,2.0,82,0.00,,---,0.00,VWS V14.00,2013-02-19 07:00:00,
2013-02-18 23:01:00,35.9,31.0,29.78,NNW,333,0.0,2.0,82,0.00,,---,0.00,VWS V14.00,2013-02-19 07:01:00,
2013-02-18 23:02:00,35.9,31.0,29.78,NNW,333,1.0,1.0,82,0.00,,---,0.00,VWS V14.00,2013-02-19 07:02:00,
2013-02-18 23:05:00,35.9,31.0,29.78,NNW,333,0.0,1.0,82,0.00,,---,0.00,VWS V14.00,2013-02-19 07:05:00,
2013-02-18 23:07:00,36.0,31.0,29.78,NNW,333,0.0,1.0,82,0.00,,---,0.00,VWS V14.00,2013-02-19 07:07:00,
2013-02-18 23:08:00,36.0,31.0,29.78,NNW,333,0.0,1.0,82,0.00,,---,0.00,VWS V14.00,2013-02-19 07:08:00,
2013-02-18 23:10:00,36.1,31.1,29.78,NNW,333,0.0,1.0,82,0.00,,---,0.00,VWS V14.00,2013-02-19 07:10:00,
2013-02-18 23:11:00,36.1,30.8,29.78,NNW,333,0.0,1.0,81,0.00,,---,0.00,VWS V14.00,2013-02-19 07:11:00,
2013-02-18 23:12:00,36.1,30.8,29.78,NNW,333,0.0,1.0,81,0.00,,---,0.00,VWS V14.00,2013-02-19 07:12:00,
2013-02-18 23:13:00,36.1,30.8,29.78,NNW,333,0.0,1.0,81,0.00,,---,0.00,VWS V14.00,2013-02-19 07:13:00,
2013-02-18 23:15:00,36.1,30.8,29.78,NNW,333,0.0,1.0,81,0.00,,---,0.00,VWS V14.00,2013-02-19 07:15:00,
2013-02-18 23:16:00,36.2,30.9,29.78,NNW,333,0.0,1.0,81,0.00,,---,0.00,VWS V14.00,2013-02-19 07:16:00,
2013-02-18 23:17:00,36.2,30.9,29.78,NNW,333,0.0,1.0,81,0.00,,---,0.00,VWS V14.00,2013-02-19 07:17:00,
2013-02-18 23:18:00,36.2,30.9,29.78,NNW,333,2.0,2.0,81,0.00,,---,0.00,VWS V14.00,2013-02-19 07:18:00,
2013-02-18 23:21:00,36.2,30.9,29.78,NNW,333,0.0,2.0,81,0.00,,---,0.00,VWS V14.00,2013-02-19 07:21:00,
2013-02-18 23:22:00,36.3,31.0,29.78,NNW,333,0.0,2.0,81,0.00,,---,0.00,VWS V14.00,2013-02-19 07:22:00,
2013-02-18 23:23:00,36.2,30.9,29.78,NNW,333,0.0,2.0,81,0.00,,---,0.00,VWS V14.00,2013-02-19 07:23:00,
2013-02-18 23:26:00,36.3,31.0,29.78,NNW,333,0.0,2.0,81,0.00,,---,0.00,VWS V14.00,2013-02-19 07:26:00,
2013-02-18 23:27:00,36.3,31.0,29.78,NNW,333,0.0,2.0,81,0.00,,---,0.00,VWS V14.00,2013-02-19 07:27:00,
2013-02-18 23:29:00,36.3,31.0,29.78,NNW,333,0.0,2.0,81,0.00,,---,0.00,VWS V14.00,2013-02-19 07:29:00,
2013-02-18 23:30:00,36.2,31.2,29.76,NNW,333,1.0,1.0,82,0.00,,---,0.00,VWS V14.00,2013-02-19 07:30:00,
2013-02-18 23:31:00,36.3,31.0,29.78,NNW,333,0.0,2.0,81,0.00,,---,0.00,VWS V14.00,2013-02-19 07:31:00,
2013-02-18 23:33:00,36.3,31.0,29.78,NNW,333,0.0,0.0,81,0.00,,---,0.00,VWS V14.00,2013-02-19 07:33:00,
2013-02-18 23:34:00,36.2,30.9,29.78,NNW,333,0.0,0.0,81,0.00,,---,0.00,VWS V14.00,2013-02-19 07:34:00,
2013-02-18 23:37:00,36.2,30.9,29.78,NNW,333,0.0,0.0,81,0.00,,---,0.00,VWS V14.00,2013-02-19 07:37:00,
2013-02-18 23:38:00,36.2,30.9,29.78,NNW,333,0.0,0.0,81,0.00,,---,0.00,VWS V14.00,2013-02-19 07:38:00,
2013-02-18 23:39:00,36.2,30.9,29.78,NNW,333,0.0,0.0,81,0.00,,---,0.00,VWS V14.00,2013-02-19 07:39:00,
2013-02-18 23:40:00,36.2,30.9,29.78,NNW,333,0.0,0.0,81,0.00,,---,0.00,VWS V14.00,2013-02-19 07:40:00,
2013-02-18 23:42:00,36.3,31.0,29.78,NNW,333,0.0,0.0,81,0.00,,---,0.00,VWS V14.00,2013-02-19 07:42:00,
2013-02-18 23:43:00,36.3,31.0,29.78,NNW,333,0.0,1.0,81,0.00,,---,0.00,VWS V14.00,2013-02-19 07:43:00,
2013-02-18 23:45:00,36.4,31.1,29.78,NNW,333,0.0,1.0,81,0.00,,---,0.00,VWS V14.00,2013-02-19 07:45:00,
2013-02-18 23:47:00,36.4,31.1,29.78,NNW,333,0.0,1.0,81,0.00,,---,0.00,VWS V14.00,2013-02-19 07:47:00,
2013-02-18 23:48:00,36.4,31.1,29.78,NNW,333,0.0,1.0,81,0.00,,---,0.00,VWS V14.00,2013-02-19 07:48:00,
2013-02-18 23:50:00,36.3,31.0,29.78,NNW,333,0.0,1.0,81,0.00,,---,0.00,VWS V14.00,2013-02-19 07:50:00,
2013-02-18 23:52:00,36.3,31.0,29.78,NNW,333,0.0,1.0,81,0.00,,---,0.00,VWS V14.00,2013-02-19 07:52:00,
2013-02-18 23:53:00,36.3,31.0,29.77,NNW,333,0.0,1.0,81,0.00,,---,0.00,VWS V14.00,2013-02-19 07:53:00,
2013-02-18 23:55:00,36.3,31.0,29.77,NNW,333,0.0,1.0,81,0.00,,---,0.00,VWS V14.00,2013-02-19 07:55:00,
2013-02-18 23:57:00,36.4,31.1,29.77,NNW,333,0.0,1.0,81,0.00,,---,0.00,VWS V14.00,2013-02-19 07:57:00,
2013-02-18 23:59:00,36.4,31.4,29.77,NNW,333,2.0,3.0,82,0.00,,---,0.00,VWS V14.00,2013-02-19 07:59:00,